Observation data for Endee on 07/11/2020      Previous  Date  Next       Current Mesonet Observations  Soil Data  Daily Summary Page  Observations in Plain Language
KEN1 110500Z 16013KT 31/13 A3005 RMK A01 T03090125  RH  032%=      5-min Rain = 0
KEN1 110501Z 17014KT 31/13 A3005 RMK A01 T03090125  RH  032%=      5-min Rain = 0
KEN1 110502Z 17013KT 31/13 A3005 RMK A01 T03080125  RH  033%=      5-min Rain = 0
KEN1 110503Z 16016KT 31/12 A3005 RMK A01 T03080124  RH  032%=      5-min Rain = 0
KEN1 110504Z 17015G21KT 31/12 A3005 RMK A01 T03080124  RH  032%=      5-min Rain = 0
KEN1 110505Z 16019KT 31/12 A3005 RMK A01 T03090124  RH  032%=      5-min Rain = 0
KEN1 110506Z 17016KT 31/12 A3005 RMK A01 T03110124  RH  032%=      5-min Rain = 0
KEN1 110507Z 16016KT 31/13 A3005 RMK A01 T03100125  RH  032%=      5-min Rain = 0
KEN1 110508Z 16019KT 31/12 A3005 RMK A01 T03100124  RH  032%=      5-min Rain = 0
KEN1 110509Z 16019KT 31/12 A3005 RMK A01 T03100124  RH  032%=      5-min Rain = 0
KEN1 110510Z 17016KT 31/12 A3005 RMK A01 T03110124  RH  032%=      5-min Rain = 0
KEN1 110511Z 17017G22KT 31/13 A3005 RMK A01 T03110125  RH  032%=      5-min Rain = 0
KEN1 110512Z 17018KT 31/13 A3005 RMK A01 T03100125  RH  032%=      5-min Rain = 0
KEN1 110513Z 17017KT 31/13 A3005 RMK A01 T03100125  RH  032%=      5-min Rain = 0
KEN1 110514Z 17016G21KT 31/13 A3005 RMK A01 T03100125  RH  032%=      5-min Rain = 0
KEN1 110515Z 17021KT 31/13 A3005 RMK A01 T03100125  RH  032%=      5-min Rain = 0
KEN1 110516Z 17020KT 31/13 A3005 RMK A01 T03100125  RH  032%=      5-min Rain = 0
KEN1 110517Z 17018G23KT 31/13 A3005 RMK A01 T03110125  RH  032%=      5-min Rain = 0
KEN1 110518Z 17018KT 31/13 A3005 RMK A01 T03100126  RH  032%=      5-min Rain = 0
KEN1 110519Z 17019KT 31/13 A3005 RMK A01 T03100126  RH  032%=      5-min Rain = 0
KEN1 110520Z 17019KT 31/13 A3005 RMK A01 T03100126  RH  032%=      5-min Rain = 0
KEN1 110521Z 17019KT 31/13 A3005 RMK A01 T03090126  RH  033%=      5-min Rain = 0
KEN1 110522Z 17017KT 31/13 A3005 RMK A01 T03090126  RH  033%=      5-min Rain = 0
KEN1 110523Z 17018KT 31/13 A3005 RMK A01 T03090126  RH  033%=      5-min Rain = 0
KEN1 110524Z 17020KT 31/13 A3005 RMK A01 T03080126  RH  033%=      5-min Rain = 0
KEN1 110525Z 17019KT 31/13 A3005 RMK A01 T03090126  RH  033%=      5-min Rain = 0
KEN1 110526Z 17019G24KT 31/13 A3005 RMK A01 T03090126  RH  033%=      5-min Rain = 0
KEN1 110527Z 17020KT 31/13 A3005 RMK A01 T03080126  RH  033%=      5-min Rain = 0
KEN1 110528Z 17021G26KT 31/13 A3005 RMK A01 T03080126  RH  033%=      5-min Rain = 0
KEN1 110529Z 17022KT 31/13 A3005 RMK A01 T03090126  RH  033%=      5-min Rain = 0
KEN1 110530Z 17017G22KT 31/13 A3005 RMK A01 T03090127  RH  033%=      5-min Rain = 0
KEN1 110531Z 17020G26KT 31/13 A3005 RMK A01 T03080127  RH  033%=      5-min Rain = 0
KEN1 110532Z 17018KT 31/13 A3005 RMK A01 T03080126  RH  033%=      5-min Rain = 0
KEN1 110533Z 17018KT 31/13 A3005 RMK A01 T03080126  RH  033%=      5-min Rain = 0
KEN1 110534Z 17016KT 31/13 A3005 RMK A01 T03080127  RH  033%=      5-min Rain = 0
KEN1 110535Z 17020G26KT 31/13 A3005 RMK A01 T03070126  RH  033%=      5-min Rain = 0
KEN1 110536Z 17018KT 31/13 A3005 RMK A01 T03070126  RH  033%=      5-min Rain = 0
KEN1 110537Z 17021KT 31/13 A3005 RMK A01 T03070126  RH  033%=      5-min Rain = 0
KEN1 110538Z 16019G25KT 31/13 A3005 RMK A01 T03070126  RH  033%=      5-min Rain = 0
KEN1 110539Z 17018G23KT 31/13 A3005 RMK A01 T03080126  RH  033%=      5-min Rain = 0
KEN1 110540Z 17018KT 31/13 A3005 RMK A01 T03070127  RH  033%=      5-min Rain = 0
KEN1 110541Z 17018KT 31/13 A3005 RMK A01 T03070127  RH  033%=      5-min Rain = 0
KEN1 110542Z 17017KT 31/13 A3005 RMK A01 T03060126  RH  033%=      5-min Rain = 0
KEN1 110543Z 17017KT 31/13 A3006 RMK A01 T03060126  RH  033%=      5-min Rain = 0
KEN1 110544Z 17017KT 31/13 A3006 RMK A01 T03060126  RH  033%=      5-min Rain = 0
KEN1 110545Z 17019KT 31/13 A3006 RMK A01 T03060126  RH  033%=      5-min Rain = 0
KEN1 110546Z 17017G22KT 31/13 A3006 RMK A01 T03060126  RH  033%=      5-min Rain = 0
KEN1 110547Z 17017KT 31/13 A3006 RMK A01 T03060126  RH  033%=      5-min Rain = 0
KEN1 110548Z 17018KT 31/13 A3006 RMK A01 T03050126  RH  033%=      5-min Rain = 0
KEN1 110549Z 17018KT 31/13 A3006 RMK A01 T03050126  RH  033%=      5-min Rain = 0
KEN1 110550Z 17017KT 31/13 A3006 RMK A01 T03050126  RH  033%=      5-min Rain = 0
KEN1 110551Z 17017G22KT 31/13 A3006 RMK A01 T03050126  RH  033%=      5-min Rain = 0
KEN1 110552Z 16017KT 31/13 A3006 RMK A01 T03050126  RH  033%=      5-min Rain = 0
KEN1 110553Z 17017G22KT 31/13 A3006 RMK A01 T03050126  RH  033%=      5-min Rain = 0
KEN1 110554Z 17017KT 31/13 A3006 RMK A01 T03050126  RH  033%=      5-min Rain = 0
KEN1 110555Z 17016KT 31/13 A3006 RMK A01 T03050126  RH  033%=      5-min Rain = 0
KEN1 110556Z 17019KT 30/13 A3006 RMK A01 T03040126  RH  033%=      5-min Rain = 0
KEN1 110557Z 17018G23KT 30/13 A3006 RMK A01 T03040125  RH  033%=      5-min Rain = 0
KEN1 110558Z 17018KT 31/13 A3006 RMK A01 T03050125  RH  033%=      5-min Rain = 0
KEN1 110559Z 17018KT 31/13 A3006 RMK A01 T03050125  RH  033%=      5-min Rain = 0
KEN1 110600Z 16015KT 31/13 A3006 RMK A01 T03050125  RH  033%=      5-min Rain = 0
KEN1 110601Z 16016KT 30/13 A3006 RMK A01 T03040125  RH  033%=      5-min Rain = 0
KEN1 110602Z 17018KT 30/13 A3006 RMK A01 T03040125  RH  033%=      5-min Rain = 0
KEN1 110603Z 17016KT 30/13 A3006 RMK A01 T03040125  RH  033%=      5-min Rain = 0
KEN1 110604Z 17015KT 30/13 A3006 RMK A01 T03030125  RH  033%=      5-min Rain = 0
KEN1 110605Z 17016KT 30/13 A3006 RMK A01 T03030125  RH  033%=      5-min Rain = 0
KEN1 110606Z 16015KT 30/13 A3006 RMK A01 T03030125  RH  034%=      5-min Rain = 0
KEN1 110607Z 16015KT 30/13 A3006 RMK A01 T03020125  RH  034%=      5-min Rain = 0
KEN1 110608Z 17015KT 30/13 A3006 RMK A01 T03010125  RH  034%=      5-min Rain = 0
KEN1 110609Z 17014G19KT 30/12 A3006 RMK A01 T03010124  RH  034%=      5-min Rain = 0
KEN1 110610Z 16016KT 30/12 A3006 RMK A01 T03000124  RH  034%=      5-min Rain = 0
KEN1 110611Z 16016KT 30/12 A3006 RMK A01 T03010124  RH  034%=      5-min Rain = 0
KEN1 110612Z 16016KT 30/12 A3006 RMK A01 T03010123  RH  034%=      5-min Rain = 0
KEN1 110613Z 17016KT 30/12 A3006 RMK A01 T03010124  RH  034%=      5-min Rain = 0
KEN1 110614Z 16015KT 30/12 A3006 RMK A01 T03010123  RH  033%=      5-min Rain = 0
KEN1 110615Z 16014KT 30/12 A3006 RMK A01 T03010123  RH  033%=      5-min Rain = 0
KEN1 110616Z 16016KT 30/12 A3006 RMK A01 T03020124  RH  034%=      5-min Rain = 0
KEN1 110617Z 16015KT 30/12 A3006 RMK A01 T03010123  RH  034%=      5-min Rain = 0
KEN1 110618Z 16013KT 30/12 A3006 RMK A01 T03010123  RH  034%=      5-min Rain = 0
KEN1 110619Z 16014G19KT 30/12 A3006 RMK A01 T03010124  RH  034%=      5-min Rain = 0
KEN1 110620Z 16016KT 30/12 A3006 RMK A01 T03000123  RH  034%=      5-min Rain = 0
KEN1 110621Z 16014KT 30/12 A3006 RMK A01 T03000122  RH  034%=      5-min Rain = 0
KEN1 110622Z 16015G20KT 30/12 A3006 RMK A01 T03010123  RH  033%=      5-min Rain = 0
KEN1 110623Z 17016KT 30/12 A3006 RMK A01 T03010123  RH  033%=      5-min Rain = 0
KEN1 110624Z 16014KT 30/12 A3006 RMK A01 T03010123  RH  033%=      5-min Rain = 0
KEN1 110625Z 16015KT 30/12 A3006 RMK A01 T03000123  RH  034%=      5-min Rain = 0
KEN1 110626Z 17014KT 30/12 A3006 RMK A01 T03000123  RH  034%=      5-min Rain = 0
KEN1 110627Z 16014KT 30/12 A3006 RMK A01 T03000123  RH  034%=      5-min Rain = 0
KEN1 110628Z 16014G19KT 30/12 A3006 RMK A01 T03000123  RH  034%=      5-min Rain = 0
KEN1 110629Z 17017G22KT 30/12 A3006 RMK A01 T03000123  RH  034%=      5-min Rain = 0
KEN1 110630Z 17014KT 30/12 A3006 RMK A01 T03000123  RH  034%=      5-min Rain = 0
KEN1 110631Z 17015G20KT 30/12 A3006 RMK A01 T03000123  RH  034%=      5-min Rain = 0
KEN1 110632Z 17020KT 30/12 A3006 RMK A01 T03000123  RH  034%=      5-min Rain = 0
KEN1 110633Z 17018KT 30/12 A3006 RMK A01 T03010122  RH  033%=      5-min Rain = 0
KEN1 110634Z 17017KT 30/12 A3006 RMK A01 T03010122  RH  033%=      5-min Rain = 0
KEN1 110635Z 17017KT 30/12 A3006 RMK A01 T03020123  RH  033%=      5-min Rain = 0
KEN1 110636Z 17016KT 30/12 A3006 RMK A01 T03010123  RH  033%=      5-min Rain = 0
KEN1 110637Z 17016KT 30/12 A3006 RMK A01 T03010123  RH  034%=      5-min Rain = 0
KEN1 110638Z 17015KT 30/12 A3006 RMK A01 T03000123  RH  034%=      5-min Rain = 0
KEN1 110639Z 17017KT 30/12 A3006 RMK A01 T02990123  RH  034%=      5-min Rain = 0
KEN1 110640Z 17016KT 30/12 A3006 RMK A01 T02990123  RH  034%=      5-min Rain = 0
KEN1 110641Z 17018KT 30/12 A3006 RMK A01 T02990122  RH  034%=      5-min Rain = 0
KEN1 110642Z 17016KT 30/12 A3006 RMK A01 T02990123  RH  034%=      5-min Rain = 0
KEN1 110643Z 17015KT 30/12 A3006 RMK A01 T02990123  RH  034%=      5-min Rain = 0
KEN1 110644Z 17016KT 30/12 A3006 RMK A01 T02980123  RH  034%=      5-min Rain = 0
KEN1 110645Z 17015KT 30/12 A3006 RMK A01 T02980123  RH  034%=      5-min Rain = 0
KEN1 110646Z 17016KT 30/12 A3006 RMK A01 T02980123  RH  034%=      5-min Rain = 0
KEN1 110647Z 17015KT 30/12 A3006 RMK A01 T02980123  RH  034%=      5-min Rain = 0
KEN1 110648Z 17014KT 30/12 A3006 RMK A01 T02970123  RH  034%=      5-min Rain = 0
KEN1 110649Z 17015KT 30/12 A3006 RMK A01 T02970123  RH  034%=      5-min Rain = 0
KEN1 110650Z 17015KT 30/12 A3006 RMK A01 T02970123  RH  034%=      5-min Rain = 0
KEN1 110651Z 17016KT 30/12 A3006 RMK A01 T02960123  RH  034%=      5-min Rain = 0
KEN1 110652Z 17015KT 30/12 A3006 RMK A01 T02970123  RH  034%=      5-min Rain = 0
KEN1 110653Z 17014KT 30/12 A3006 RMK A01 T02970122  RH  034%=      5-min Rain = 0
KEN1 110654Z 17012KT 30/12 A3006 RMK A01 T02960123  RH  034%=      5-min Rain = 0
KEN1 110655Z 17013KT 30/12 A3006 RMK A01 T02950123  RH  035%=      5-min Rain = 0
KEN1 110656Z 17015KT 30/12 A3006 RMK A01 T02950123  RH  035%=      5-min Rain = 0
KEN1 110657Z 17014KT 30/12 A3006 RMK A01 T02950122  RH  035%=      5-min Rain = 0
KEN1 110658Z 17015KT 30/12 A3006 RMK A01 T02950123  RH  035%=      5-min Rain = 0
KEN1 110659Z 17013KT 30/12 A3006 RMK A01 T02950123  RH  035%=      5-min Rain = 0
KEN1 110700Z 17014KT 29/12 A3006 RMK A01 T02940123  RH  035%=      5-min Rain = 0
KEN1 110701Z 17013KT 29/12 A3006 RMK A01 T02940123  RH  035%=      5-min Rain = 0
KEN1 110702Z 17013KT 29/12 A3006 RMK A01 T02940123  RH  035%=      5-min Rain = 0
KEN1 110703Z 17013KT 29/12 A3006 RMK A01 T02930122  RH  035%=      5-min Rain = 0
KEN1 110704Z 17012KT 29/12 A3006 RMK A01 T02930122  RH  035%=      5-min Rain = 0
KEN1 110705Z 17014KT 29/12 A3006 RMK A01 T02930122  RH  035%=      5-min Rain = 0
KEN1 110706Z 17012KT 29/12 A3006 RMK A01 T02930123  RH  035%=      5-min Rain = 0
KEN1 110707Z 17010KT 29/12 A3006 RMK A01 T02930123  RH  035%=      5-min Rain = 0
KEN1 110708Z 17010KT 29/12 A3006 RMK A01 T02910123  RH  035%=      5-min Rain = 0
KEN1 110709Z 17010KT 29/12 A3006 RMK A01 T02900123  RH  036%=      5-min Rain = 0
KEN1 110710Z 18012KT 29/12 A3006 RMK A01 T02890123  RH  036%=      5-min Rain = 0
KEN1 110711Z 18011KT 29/12 A3006 RMK A01 T02890123  RH  036%=      5-min Rain = 0
KEN1 110712Z 17014KT 29/12 A3006 RMK A01 T02900123  RH  036%=      5-min Rain = 0
KEN1 110713Z 17015KT 29/12 A3006 RMK A01 T02910122  RH  035%=      5-min Rain = 0
KEN1 110714Z 18015KT 29/12 A3006 RMK A01 T02920123  RH  035%=      5-min Rain = 0
KEN1 110715Z 18013KT 29/12 A3006 RMK A01 T02920123  RH  035%=      5-min Rain = 0
KEN1 110716Z 17012KT 29/12 A3006 RMK A01 T02930123  RH  035%=      5-min Rain = 0
KEN1 110717Z 17014KT 29/12 A3006 RMK A01 T02920123  RH  035%=      5-min Rain = 0
KEN1 110718Z 17013KT 29/12 A3006 RMK A01 T02910123  RH  035%=      5-min Rain = 0
KEN1 110719Z 17014KT 29/12 A3006 RMK A01 T02920123  RH  035%=      5-min Rain = 0
KEN1 110720Z 17012KT 29/12 A3006 RMK A01 T02920123  RH  035%=      5-min Rain = 0
KEN1 110721Z 17011KT 29/12 A3006 RMK A01 T02910124  RH  035%=      5-min Rain = 0
KEN1 110722Z 17014KT 29/12 A3006 RMK A01 T02900123  RH  036%=      5-min Rain = 0
KEN1 110723Z 18012KT 29/12 A3007 RMK A01 T02910123  RH  035%=      5-min Rain = 0
KEN1 110724Z 17012KT 29/12 A3007 RMK A01 T02910123  RH  036%=      5-min Rain = 0
KEN1 110725Z 17013KT 29/12 A3007 RMK A01 T02900123  RH  036%=      5-min Rain = 0
KEN1 110726Z 18011KT 29/12 A3007 RMK A01 T02900123  RH  036%=      5-min Rain = 0
KEN1 110727Z 18012KT 29/12 A3007 RMK A01 T02900123  RH  036%=      5-min Rain = 0
KEN1 110728Z 18014KT 29/12 A3007 RMK A01 T02890123  RH  036%=      5-min Rain = 0
KEN1 110729Z 18014G19KT 29/12 A3006 RMK A01 T02900123  RH  036%=      5-min Rain = 0
KEN1 110730Z 17013KT 29/12 A3006 RMK A01 T02900122  RH  035%=      5-min Rain = 0
KEN1 110731Z 18013KT 29/12 A3006 RMK A01 T02910123  RH  035%=      5-min Rain = 0
KEN1 110732Z 18013KT 29/12 A3007 RMK A01 T02910123  RH  035%=      5-min Rain = 0
KEN1 110733Z 18012KT 29/12 A3007 RMK A01 T02910123  RH  036%=      5-min Rain = 0
KEN1 110734Z 18013KT 29/12 A3007 RMK A01 T02910123  RH  035%=      5-min Rain = 0
KEN1 110735Z 18014KT 29/12 A3007 RMK A01 T02900123  RH  036%=      5-min Rain = 0
KEN1 110736Z 18014G21KT 29/12 A3007 RMK A01 T02900122  RH  036%=      5-min Rain = 0
KEN1 110737Z 18018KT 29/12 A3007 RMK A01 T02900122  RH  035%=      5-min Rain = 0
KEN1 110738Z 18016KT 29/12 A3007 RMK A01 T02920122  RH  035%=      5-min Rain = 0
KEN1 110739Z 18016G24KT 29/12 A3006 RMK A01 T02920122  RH  035%=      5-min Rain = 0
KEN1 110740Z 18015KT 29/12 A3006 RMK A01 T02920121  RH  035%=      5-min Rain = 0
KEN1 110741Z 18016KT 29/12 A3006 RMK A01 T02920122  RH  035%=      5-min Rain = 0
KEN1 110742Z 18016KT 29/12 A3006 RMK A01 T02920122  RH  035%=      5-min Rain = 0
KEN1 110743Z 18015KT 29/12 A3006 RMK A01 T02920121  RH  035%=      5-min Rain = 0
KEN1 110744Z 18015KT 29/12 A3006 RMK A01 T02920121  RH  035%=      5-min Rain = 0
KEN1 110745Z 18014KT 29/12 A3006 RMK A01 T02910121  RH  035%=      5-min Rain = 0
KEN1 110746Z 18015KT 29/12 A3006 RMK A01 T02900122  RH  035%=      5-min Rain = 0
KEN1 110747Z 18016KT 29/12 A3006 RMK A01 T02900122  RH  035%=      5-min Rain = 0
KEN1 110748Z 18016KT 29/12 A3006 RMK A01 T02900121  RH  035%=      5-min Rain = 0
KEN1 110749Z 18014KT 29/12 A3006 RMK A01 T02900121  RH  035%=      5-min Rain = 0
KEN1 110750Z 18014KT 29/12 A3006 RMK A01 T02900121  RH  035%=      5-min Rain = 0
KEN1 110751Z 18015G20KT 29/12 A3006 RMK A01 T02890121  RH  035%=      5-min Rain = 0
KEN1 110752Z 18015KT 29/12 A3006 RMK A01 T02890121  RH  035%=      5-min Rain = 0
KEN1 110753Z 18014KT 29/12 A3007 RMK A01 T02890121  RH  035%=      5-min Rain = 0
KEN1 110754Z 18015KT 29/12 A3006 RMK A01 T02890121  RH  035%=      5-min Rain = 0
KEN1 110755Z 18014KT 29/12 A3006 RMK A01 T02880121  RH  035%=      5-min Rain = 0
KEN1 110756Z 18013KT 29/12 A3006 RMK A01 T02880121  RH  036%=      5-min Rain = 0
KEN1 110757Z 18016KT 29/12 A3006 RMK A01 T02870120  RH  036%=      5-min Rain = 0
KEN1 110758Z 18016KT 29/12 A3006 RMK A01 T02870120  RH  035%=      5-min Rain = 0
KEN1 110759Z 18014KT 29/12 A3006 RMK A01 T02880120  RH  035%=      5-min Rain = 0
KEN1 110800Z 18016KT 29/12 A3006 RMK A01 T02880119  RH  035%=      5-min Rain = 0
KEN1 110801Z 18018KT 29/12 A3006 RMK A01 T02880119  RH  035%=      5-min Rain = 0
KEN1 110802Z 18016KT 29/12 A3006 RMK A01 T02880119  RH  035%=      5-min Rain = 0
KEN1 110803Z 18017KT 29/12 A3006 RMK A01 T02880119  RH  035%=      5-min Rain = 0
KEN1 110804Z 18016KT 29/12 A3006 RMK A01 T02880119  RH  035%=      5-min Rain = 0
KEN1 110805Z 18015KT 29/12 A3006 RMK A01 T02880119  RH  035%=      5-min Rain = 0
KEN1 110806Z 18016KT 29/12 A3006 RMK A01 T02880119  RH  035%=      5-min Rain = 0
KEN1 110807Z 18015KT 29/12 A3006 RMK A01 T02880119  RH  035%=      5-min Rain = 0
KEN1 110808Z 18016G21KT 29/12 A3006 RMK A01 T02870119  RH  035%=      5-min Rain = 0
KEN1 110809Z 18015KT 29/12 A3006 RMK A01 T02870119  RH  035%=      5-min Rain = 0
KEN1 110810Z 18014G20KT 29/12 A3006 RMK A01 T02870119  RH  035%=      5-min Rain = 0
KEN1 110811Z 18014KT 29/12 A3006 RMK A01 T02860119  RH  036%=      5-min Rain = 0
KEN1 110812Z 18014G19KT 29/12 A3006 RMK A01 T02850119  RH  036%=      5-min Rain = 0
KEN1 110813Z 18014KT 29/12 A3006 RMK A01 T02850119  RH  036%=      5-min Rain = 0
KEN1 110814Z 18013KT 29/12 A3006 RMK A01 T02850119  RH  036%=      5-min Rain = 0
KEN1 110815Z 18015KT 29/12 A3006 RMK A01 T02850119  RH  036%=      5-min Rain = 0
KEN1 110816Z 18014KT 29/12 A3006 RMK A01 T02850118  RH  036%=      5-min Rain = 0
KEN1 110817Z 18015KT 29/12 A3006 RMK A01 T02850118  RH  036%=      5-min Rain = 0
KEN1 110818Z 18013KT 29/12 A3006 RMK A01 T02850118  RH  035%=      5-min Rain = 0
KEN1 110819Z 19013KT 29/12 A3006 RMK A01 T02850118  RH  036%=      5-min Rain = 0
KEN1 110820Z 18012KT 29/12 A3006 RMK A01 T02850118  RH  036%=      5-min Rain = 0
KEN1 110821Z 19013KT 29/12 A3006 RMK A01 T02850118  RH  036%=      5-min Rain = 0
KEN1 110822Z 18011KT 28/12 A3006 RMK A01 T02840118  RH  036%=      5-min Rain = 0
KEN1 110823Z 19017KT 29/12 A3006 RMK A01 T02850118  RH  036%=      5-min Rain = 0
KEN1 110824Z 19014KT 29/12 A3006 RMK A01 T02870118  RH  035%=      5-min Rain = 0
KEN1 110825Z 19014KT 29/12 A3006 RMK A01 T02880118  RH  035%=      5-min Rain = 0
KEN1 110826Z 19015KT 29/12 A3006 RMK A01 T02890118  RH  035%=      5-min Rain = 0
KEN1 110827Z 19014KT 29/12 A3006 RMK A01 T02890118  RH  035%=      5-min Rain = 0
KEN1 110828Z 19011G16KT 29/12 A3006 RMK A01 T02900118  RH  035%=      5-min Rain = 0
KEN1 110829Z 19016KT 29/12 A3006 RMK A01 T02900119  RH  035%=      5-min Rain = 0
KEN1 110830Z 19014KT 29/12 A3006 RMK A01 T02890118  RH  035%=      5-min Rain = 0
KEN1 110831Z 19012KT 29/12 A3006 RMK A01 T02900118  RH  035%=      5-min Rain = 0
KEN1 110832Z 19014KT 29/12 A3006 RMK A01 T02900119  RH  035%=      5-min Rain = 0
KEN1 110833Z 19013KT 29/12 A3006 RMK A01 T02900119  RH  035%=      5-min Rain = 0
KEN1 110834Z 19012KT 29/12 A3006 RMK A01 T02890119  RH  035%=      5-min Rain = 0
KEN1 110835Z 19011KT 29/12 A3006 RMK A01 T02890119  RH  035%=      5-min Rain = 0
KEN1 110836Z 19013KT 29/12 A3006 RMK A01 T02870119  RH  035%=      5-min Rain = 0
KEN1 110837Z 19011KT 29/12 A3006 RMK A01 T02880120  RH  035%=      5-min Rain = 0
KEN1 110838Z 19011KT 29/12 A3006 RMK A01 T02870120  RH  035%=      5-min Rain = 0
KEN1 110839Z 19013G18KT 29/12 A3006 RMK A01 T02870119  RH  035%=      5-min Rain = 0
KEN1 110840Z 19013KT 29/12 A3006 RMK A01 T02870119  RH  035%=      5-min Rain = 0
KEN1 110841Z 19014G19KT 29/12 A3006 RMK A01 T02870119  RH  035%=      5-min Rain = 0
KEN1 110842Z 19012KT 29/12 A3006 RMK A01 T02880120  RH  035%=      5-min Rain = 0
KEN1 110843Z 19015KT 29/12 A3006 RMK A01 T02880120  RH  035%=      5-min Rain = 0
KEN1 110844Z 19014KT 29/12 A3006 RMK A01 T02880120  RH  035%=      5-min Rain = 0
KEN1 110845Z 19013KT 29/12 A3005 RMK A01 T02880120  RH  035%=      5-min Rain = 0
KEN1 110846Z 19012G17KT 29/12 A3005 RMK A01 T02880121  RH  035%=      5-min Rain = 0
KEN1 110847Z 19014KT 29/12 A3005 RMK A01 T02870120  RH  036%=      5-min Rain = 0
KEN1 110848Z 19013KT 29/12 A3005 RMK A01 T02870120  RH  036%=      5-min Rain = 0
KEN1 110849Z 19014KT 29/12 A3005 RMK A01 T02860120  RH  036%=      5-min Rain = 0
KEN1 110850Z 19014KT 29/12 A3005 RMK A01 T02860121  RH  036%=      5-min Rain = 0
KEN1 110851Z 19014KT 29/12 A3005 RMK A01 T02860120  RH  036%=      5-min Rain = 0
KEN1 110852Z 19015KT 29/12 A3005 RMK A01 T02860120  RH  036%=      5-min Rain = 0
KEN1 110853Z 19014KT 29/12 A3005 RMK A01 T02860121  RH  036%=      5-min Rain = 0
KEN1 110854Z 19014KT 29/12 A3005 RMK A01 T02860121  RH  036%=      5-min Rain = 0
KEN1 110855Z 19014KT 29/12 A3005 RMK A01 T02860121  RH  036%=      5-min Rain = 0
KEN1 110856Z 19012KT 29/12 A3005 RMK A01 T02850121  RH  036%=      5-min Rain = 0
KEN1 110857Z 19016KT 29/12 A3005 RMK A01 T02850121  RH  036%=      5-min Rain = 0
KEN1 110858Z 19015KT 29/12 A3005 RMK A01 T02850121  RH  036%=      5-min Rain = 0
KEN1 110859Z 19014KT 29/12 A3005 RMK A01 T02860121  RH  036%=      5-min Rain = 0
KEN1 110900Z 18013KT 29/12 A3005 RMK A01 T02860122  RH  036%=      5-min Rain = 0
KEN1 110901Z 18014KT 28/12 A3005 RMK A01 T02840121  RH  036%=      5-min Rain = 0
KEN1 110902Z 19012KT 29/12 A3005 RMK A01 T02850122  RH  036%=      5-min Rain = 0
KEN1 110903Z 19012KT 28/12 A3005 RMK A01 T02840122  RH  037%=      5-min Rain = 0
KEN1 110904Z 19013KT 28/12 A3005 RMK A01 T02830122  RH  037%=      5-min Rain = 0
KEN1 110905Z 19012KT 28/12 A3005 RMK A01 T02830122  RH  037%=      5-min Rain = 0
KEN1 110906Z 19011KT 28/12 A3005 RMK A01 T02820122  RH  037%=      5-min Rain = 0
KEN1 110907Z 18010KT 28/12 A3005 RMK A01 T02810122  RH  037%=      5-min Rain = 0
KEN1 110908Z 19012KT 28/12 A3006 RMK A01 T02800122  RH  038%=      5-min Rain = 0
KEN1 110909Z 19012KT 28/12 A3006 RMK A01 T02800122  RH  038%=      5-min Rain = 0
KEN1 110910Z 18010KT 28/12 A3006 RMK A01 T02800122  RH  037%=      5-min Rain = 0
KEN1 110911Z 18009KT 28/12 A3006 RMK A01 T02810122  RH  037%=      5-min Rain = 0
KEN1 110912Z 18010KT 28/12 A3006 RMK A01 T02780122  RH  038%=      5-min Rain = 0
KEN1 110913Z 18010KT 28/12 A3006 RMK A01 T02780122  RH  038%=      5-min Rain = 0
KEN1 110914Z 18010KT 28/12 A3006 RMK A01 T02770122  RH  038%=      5-min Rain = 0
KEN1 110915Z 18011KT 28/12 A3006 RMK A01 T02770122  RH  038%=      5-min Rain = 0
KEN1 110916Z 18011KT 28/12 A3006 RMK A01 T02770123  RH  038%=      5-min Rain = 0
KEN1 110917Z 18009KT 28/12 A3006 RMK A01 T02770123  RH  038%=      5-min Rain = 0
KEN1 110918Z 18010KT 28/12 A3006 RMK A01 T02760123  RH  039%=      5-min Rain = 0
KEN1 110919Z 18008KT 28/12 A3006 RMK A01 T02760123  RH  039%=      5-min Rain = 0
KEN1 110920Z 18009KT 28/12 A3006 RMK A01 T02750123  RH  039%=      5-min Rain = 0
KEN1 110921Z 18009KT 27/12 A3006 RMK A01 T02740123  RH  039%=      5-min Rain = 0
KEN1 110922Z 19009KT 27/12 A3006 RMK A01 T02740123  RH  039%=      5-min Rain = 0
KEN1 110923Z 19010KT 27/12 A3006 RMK A01 T02740124  RH  039%=      5-min Rain = 0
KEN1 110924Z 18010KT 28/13 A3006 RMK A01 T02750125  RH  039%=      5-min Rain = 0
KEN1 110925Z 18009KT 28/13 A3006 RMK A01 T02750125  RH  039%=      5-min Rain = 0
KEN1 110926Z 18010KT 28/13 A3006 RMK A01 T02750126  RH  040%=      5-min Rain = 0
KEN1 110927Z 18011KT 28/13 A3006 RMK A01 T02750126  RH  040%=      5-min Rain = 0
KEN1 110928Z 18012KT 28/13 A3006 RMK A01 T02750126  RH  040%=      5-min Rain = 0
KEN1 110929Z 18010KT 28/13 A3006 RMK A01 T02770126  RH  039%=      5-min Rain = 0
KEN1 110930Z 18009KT 28/13 A3006 RMK A01 T02780127  RH  039%=      5-min Rain = 0
KEN1 110931Z 18009KT 28/13 A3006 RMK A01 T02760127  RH  040%=      5-min Rain = 0
KEN1 110932Z 18009KT 28/13 A3006 RMK A01 T02760126  RH  040%=      5-min Rain = 0
KEN1 110933Z 18009KT 28/13 A3006 RMK A01 T02750126  RH  040%=      5-min Rain = 0
KEN1 110934Z 18009KT 28/13 A3006 RMK A01 T02750127  RH  040%=      5-min Rain = 0
KEN1 110935Z 18009KT 27/13 A3006 RMK A01 T02740127  RH  040%=      5-min Rain = 0
KEN1 110936Z 18007KT 27/13 A3006 RMK A01 T02740127  RH  040%=      5-min Rain = 0
KEN1 110937Z 18007KT 27/13 A3006 RMK A01 T02730127  RH  040%=      5-min Rain = 0
KEN1 110938Z 18007KT 27/13 A3006 RMK A01 T02720126  RH  040%=      5-min Rain = 0
KEN1 110939Z 18006KT 27/13 A3006 RMK A01 T02720127  RH  041%=      5-min Rain = 0
KEN1 110940Z 18007KT 27/13 A3006 RMK A01 T02710127  RH  041%=      5-min Rain = 0
KEN1 110941Z 18007KT 27/13 A3006 RMK A01 T02700127  RH  041%=      5-min Rain = 0
KEN1 110942Z 18007KT 27/13 A3006 RMK A01 T02700127  RH  041%=      5-min Rain = 0
KEN1 110943Z 18006KT 27/13 A3006 RMK A01 T02700127  RH  041%=      5-min Rain = 0
KEN1 110944Z 18006KT 27/13 A3006 RMK A01 T02710128  RH  041%=      5-min Rain = 0
KEN1 110945Z 18006KT 27/13 A3006 RMK A01 T02710127  RH  041%=      5-min Rain = 0
KEN1 110946Z 18005KT 27/13 A3006 RMK A01 T02710128  RH  041%=      5-min Rain = 0
KEN1 110947Z 18005KT 27/13 A3006 RMK A01 T02710128  RH  041%=      5-min Rain = 0
KEN1 110948Z 18005KT 27/13 A3007 RMK A01 T02700128  RH  041%=      5-min Rain = 0
KEN1 110949Z 18004KT 27/13 A3007 RMK A01 T02700128  RH  041%=      5-min Rain = 0
KEN1 110950Z 20005KT 27/13 A3007 RMK A01 T02690128  RH  042%=      5-min Rain = 0
KEN1 110951Z 19003KT 27/13 A3007 RMK A01 T02690128  RH  042%=      5-min Rain = 0
KEN1 110952Z 18002KT 27/13 A3007 RMK A01 T02690127  RH  041%=      5-min Rain = 0
KEN1 110953Z 21000KT 27/13 A3007 RMK A01 T02680128  RH  042%=      5-min Rain = 0
KEN1 110954Z 00000KT 27/13 A3007 RMK A01 T02670129  RH  042%=      5-min Rain = 0
KEN1 110955Z 00000KT 27/13 A3007 RMK A01 T02660128  RH  042%=      5-min Rain = 0
KEN1 110956Z 25000KT 27/13 A3007 RMK A01 T02660130  RH  043%=      5-min Rain = 0
KEN1 110957Z 26002KT 27/13 A3007 RMK A01 T02650131  RH  043%=      5-min Rain = 0
KEN1 110958Z 22003KT 26/13 A3007 RMK A01 T02630128  RH  043%=      5-min Rain = 0
KEN1 110959Z 23005KT 27/13 A3007 RMK A01 T02650128  RH  043%=      5-min Rain = 0
KEN1 111000Z 22005KT 27/13 A3007 RMK A01 T02680129  RH  042%=      5-min Rain = 0
KEN1 111001Z 24005KT 27/13 A3007 RMK A01 T02690129  RH  042%=      5-min Rain = 0
KEN1 111002Z 23005KT 27/13 A3007 RMK A01 T02700128  RH  042%=      5-min Rain = 0
KEN1 111003Z 22006KT 27/13 A3007 RMK A01 T02700129  RH  042%=      5-min Rain = 0
KEN1 111004Z 24006KT 27/13 A3007 RMK A01 T02690129  RH  042%=      5-min Rain = 0
KEN1 111005Z 23006KT 27/13 A3008 RMK A01 T02690128  RH  042%=      5-min Rain = 0
KEN1 111006Z 23006KT 27/13 A3008 RMK A01 T02700128  RH  041%=      5-min Rain = 0
KEN1 111007Z 25006KT 27/13 A3008 RMK A01 T02720128  RH  041%=      5-min Rain = 0
KEN1 111008Z 24006KT 27/13 A3008 RMK A01 T02720128  RH  041%=      5-min Rain = 0
KEN1 111009Z 23006KT 27/13 A3008 RMK A01 T02720129  RH  041%=      5-min Rain = 0
KEN1 111010Z 23005KT 27/13 A3008 RMK A01 T02720129  RH  041%=      5-min Rain = 0
KEN1 111011Z 24005KT 27/13 A3008 RMK A01 T02720129  RH  041%=      5-min Rain = 0
KEN1 111012Z 22006KT 27/13 A3008 RMK A01 T02720129  RH  041%=      5-min Rain = 0
KEN1 111013Z 22006KT 27/13 A3008 RMK A01 T02720129  RH  041%=      5-min Rain = 0
KEN1 111014Z 23006KT 27/13 A3008 RMK A01 T02730129  RH  041%=      5-min Rain = 0
KEN1 111015Z 23006KT 27/13 A3008 RMK A01 T02730129  RH  041%=      5-min Rain = 0
KEN1 111016Z 23006KT 27/13 A3008 RMK A01 T02730129  RH  041%=      5-min Rain = 0
KEN1 111017Z 21007KT 27/13 A3008 RMK A01 T02720130  RH  041%=      5-min Rain = 0
KEN1 111018Z 23004KT 27/13 A3008 RMK A01 T02710130  RH  042%=      5-min Rain = 0
KEN1 111019Z 23005KT 27/13 A3008 RMK A01 T02700130  RH  042%=      5-min Rain = 0
KEN1 111020Z 21005KT 27/13 A3008 RMK A01 T02690131  RH  042%=      5-min Rain = 0
KEN1 111021Z 22006KT 27/13 A3008 RMK A01 T02680131  RH  043%=      5-min Rain = 0
KEN1 111022Z 22006KT 27/13 A3008 RMK A01 T02680131  RH  043%=      5-min Rain = 0
KEN1 111023Z 20007KT 27/13 A3008 RMK A01 T02680132  RH  043%=      5-min Rain = 0
KEN1 111024Z 20008KT 27/13 A3008 RMK A01 T02690133  RH  043%=      5-min Rain = 0
KEN1 111025Z 19008KT 27/13 A3008 RMK A01 T02710133  RH  043%=      5-min Rain = 0
KEN1 111026Z 19009KT 27/13 A3008 RMK A01 T02730134  RH  042%=      5-min Rain = 0
KEN1 111027Z 21007KT 27/13 A3008 RMK A01 T02730133  RH  042%=      5-min Rain = 0
KEN1 111028Z 21008KT 27/13 A3008 RMK A01 T02740133  RH  042%=      5-min Rain = 0
KEN1 111029Z 20009KT 27/13 A3008 RMK A01 T02730134  RH  042%=      5-min Rain = 0
KEN1 111030Z 22009KT 27/13 A3008 RMK A01 T02730134  RH  042%=      5-min Rain = 0
KEN1 111031Z 22008KT 27/13 A3009 RMK A01 T02730134  RH  042%=      5-min Rain = 0
KEN1 111032Z 21006KT 27/13 A3009 RMK A01 T02740134  RH  042%=      5-min Rain = 0
KEN1 111033Z 20007KT 27/14 A3009 RMK A01 T02740135  RH  042%=      5-min Rain = 0
KEN1 111034Z 21008KT 27/14 A3009 RMK A01 T02720135  RH  043%=      5-min Rain = 0
KEN1 111035Z 20007KT 27/14 A3009 RMK A01 T02720135  RH  043%=      5-min Rain = 0
KEN1 111036Z 21008KT 27/14 A3009 RMK A01 T02700135  RH  043%=      5-min Rain = 0
KEN1 111037Z 20009KT 27/14 A3009 RMK A01 T02690136  RH  044%=      5-min Rain = 0
KEN1 111038Z 20009KT 27/14 A3009 RMK A01 T02690136  RH  044%=      5-min Rain = 0
KEN1 111039Z 21010KT 27/14 A3009 RMK A01 T02690136  RH  044%=      5-min Rain = 0
KEN1 111040Z 20009KT 27/14 A3009 RMK A01 T02720136  RH  043%=      5-min Rain = 0
KEN1 111041Z 21010KT 27/14 A3009 RMK A01 T02720137  RH  043%=      5-min Rain = 0
KEN1 111042Z 20010KT 27/14 A3009 RMK A01 T02720137  RH  043%=      5-min Rain = 0
KEN1 111043Z 20011KT 27/14 A3009 RMK A01 T02710137  RH  044%=      5-min Rain = 0
KEN1 111044Z 20012KT 27/14 A3009 RMK A01 T02710137  RH  044%=      5-min Rain = 0
KEN1 111045Z 21013KT 27/14 A3009 RMK A01 T02710138  RH  044%=      5-min Rain = 0
KEN1 111046Z 21011KT 27/14 A3009 RMK A01 T02720138  RH  044%=      5-min Rain = 0
KEN1 111047Z 21010KT 27/14 A3009 RMK A01 T02730139  RH  044%=      5-min Rain = 0
KEN1 111048Z 21012KT 27/14 A3009 RMK A01 T02720138  RH  044%=      5-min Rain = 0
KEN1 111049Z 21011KT 27/14 A3009 RMK A01 T02710138  RH  044%=      5-min Rain = 0
KEN1 111050Z 21011KT 27/14 A3009 RMK A01 T02710139  RH  044%=      5-min Rain = 0
KEN1 111051Z 21011KT 27/14 A3009 RMK A01 T02710138  RH  044%=      5-min Rain = 0
KEN1 111052Z 22011KT 27/14 A3009 RMK A01 T02700139  RH  044%=      5-min Rain = 0
KEN1 111053Z 21012KT 27/14 A3009 RMK A01 T02700138  RH  044%=      5-min Rain = 0
KEN1 111054Z 22013KT 27/14 A3009 RMK A01 T02700139  RH  044%=      5-min Rain = 0
KEN1 111055Z 22015KT 27/14 A3009 RMK A01 T02700140  RH  045%=      5-min Rain = 0
KEN1 111056Z 22014KT 27/14 A3009 RMK A01 T02710140  RH  044%=      5-min Rain = 0
KEN1 111057Z 22013KT 27/14 A3009 RMK A01 T02710140  RH  044%=      5-min Rain = 0
KEN1 111058Z 22012KT 27/14 A3009 RMK A01 T02710140  RH  044%=      5-min Rain = 0
KEN1 111059Z 22011KT 27/14 A3009 RMK A01 T02710140  RH  045%=      5-min Rain = 0
KEN1 111100Z 22012KT 27/14 A3009 RMK A01 T02700140  RH  045%=      5-min Rain = 0
KEN1 111101Z 22013KT 27/14 A3009 RMK A01 T02690140  RH  045%=      5-min Rain = 0
KEN1 111102Z 22012KT 27/14 A3009 RMK A01 T02700140  RH  045%=      5-min Rain = 0
KEN1 111103Z 22013KT 27/14 A3009 RMK A01 T02700141  RH  045%=      5-min Rain = 0
KEN1 111104Z 22013KT 27/14 A3009 RMK A01 T02700141  RH  045%=      5-min Rain = 0
KEN1 111105Z 23014G19KT 27/14 A3009 RMK A01 T02710141  RH  045%=      5-min Rain = 0
KEN1 111106Z 22014KT 27/14 A3009 RMK A01 T02710141  RH  045%=      5-min Rain = 0
KEN1 111107Z 23011KT 27/14 A3009 RMK A01 T02720141  RH  045%=      5-min Rain = 0
KEN1 111108Z 23011KT 27/14 A3009 RMK A01 T02720141  RH  045%=      5-min Rain = 0
KEN1 111109Z 23011KT 27/14 A3009 RMK A01 T02710141  RH  045%=      5-min Rain = 0
KEN1 111110Z 23009KT 27/14 A3009 RMK A01 T02700142  RH  045%=      5-min Rain = 0
KEN1 111111Z 23009KT 27/14 A3009 RMK A01 T02690141  RH  045%=      5-min Rain = 0
KEN1 111112Z 23012KT 27/14 A3009 RMK A01 T02680141  RH  046%=      5-min Rain = 0
KEN1 111113Z 23011G16KT 27/14 A3009 RMK A01 T02690142  RH  046%=      5-min Rain = 0
KEN1 111114Z 23010KT 27/14 A3009 RMK A01 T02700142  RH  045%=      5-min Rain = 0
KEN1 111115Z 23010KT 27/14 A3009 RMK A01 T02700142  RH  046%=      5-min Rain = 0
KEN1 111116Z 23008KT 27/14 A3009 RMK A01 T02690143  RH  046%=      5-min Rain = 0
KEN1 111117Z 23011KT 27/14 A3009 RMK A01 T02680143  RH  046%=      5-min Rain = 0
KEN1 111118Z 23015KT 27/14 A3009 RMK A01 T02680142  RH  046%=      5-min Rain = 0
KEN1 111119Z 24011KT 27/14 A3009 RMK A01 T02700143  RH  046%=      5-min Rain = 0
KEN1 111120Z 24010KT 27/14 A301 RMK A01 T02710143  RH  045%=      5-min Rain = 0
KEN1 111121Z 24013KT 27/14 A301 RMK A01 T02710143  RH  045%=      5-min Rain = 0
KEN1 111122Z 24013KT 27/14 A301 RMK A01 T02710143  RH  045%=      5-min Rain = 0
KEN1 111123Z 22011KT 27/14 A301 RMK A01 T02710143  RH  045%=      5-min Rain = 0
KEN1 111124Z 24010KT 27/14 A301 RMK A01 T02710143  RH  046%=      5-min Rain = 0
KEN1 111125Z 25008KT 27/14 A301 RMK A01 T02700143  RH  046%=      5-min Rain = 0
KEN1 111126Z 24007KT 27/14 A301 RMK A01 T02680143  RH  046%=      5-min Rain = 0
KEN1 111127Z 24009KT 27/14 A301 RMK A01 T02670143  RH  046%=      5-min Rain = 0
KEN1 111128Z 23008KT 27/14 A301 RMK A01 T02660143  RH  047%=      5-min Rain = 0
KEN1 111129Z 24007KT 27/14 A301 RMK A01 T02660144  RH  047%=      5-min Rain = 0
KEN1 111130Z 23008KT 27/14 A301 RMK A01 T02650144  RH  047%=      5-min Rain = 0
KEN1 111131Z 24011KT 27/14 A301 RMK A01 T02650144  RH  047%=      5-min Rain = 0
KEN1 111132Z 24009KT 27/14 A301 RMK A01 T02660144  RH  047%=      5-min Rain = 0
KEN1 111133Z 23008KT 27/14 A301 RMK A01 T02660144  RH  047%=      5-min Rain = 0
KEN1 111134Z 24010KT 27/14 A301 RMK A01 T02660144  RH  047%=      5-min Rain = 0
KEN1 111135Z 24008KT 27/14 A301 RMK A01 T02660144  RH  047%=      5-min Rain = 0
KEN1 111136Z 24008KT 27/14 A301 RMK A01 T02680144  RH  047%=      5-min Rain = 0
KEN1 111137Z 24008KT 27/14 A301 RMK A01 T02690144  RH  046%=      5-min Rain = 0
KEN1 111138Z 24006KT 27/14 A301 RMK A01 T02680144  RH  047%=      5-min Rain = 0
KEN1 111139Z 24006KT 27/14 A301 RMK A01 T02660144  RH  047%=      5-min Rain = 0
KEN1 111140Z 24006KT 26/14 A301 RMK A01 T02640144  RH  048%=      5-min Rain = 0
KEN1 111141Z 24007KT 26/14 A301 RMK A01 T02630144  RH  048%=      5-min Rain = 0
KEN1 111142Z 24007KT 26/14 A301 RMK A01 T02630144  RH  048%=      5-min Rain = 0
KEN1 111143Z 24007KT 26/14 A301 RMK A01 T02610144  RH  048%=      5-min Rain = 0
KEN1 111144Z 24008KT 26/14 A301 RMK A01 T02600144  RH  049%=      5-min Rain = 0
KEN1 111145Z 24009KT 26/15 A301 RMK A01 T02590145  RH  049%=      5-min Rain = 0
KEN1 111146Z 24009KT 26/14 A301 RMK A01 T02590144  RH  049%=      5-min Rain = 0
KEN1 111147Z 24009KT 26/14 A301 RMK A01 T02590144  RH  049%=      5-min Rain = 0
KEN1 111148Z 24010KT 26/14 A301 RMK A01 T02600144  RH  049%=      5-min Rain = 0
KEN1 111149Z 24010KT 26/15 A301 RMK A01 T02610145  RH  049%=      5-min Rain = 0
KEN1 111150Z 23010KT 26/15 A301 RMK A01 T02620145  RH  049%=      5-min Rain = 0
KEN1 111151Z 23010KT 26/15 A301 RMK A01 T02620145  RH  049%=      5-min Rain = 0
KEN1 111152Z 23008KT 26/15 A301 RMK A01 T02620145  RH  049%=      5-min Rain = 0
KEN1 111153Z 23008KT 26/15 A301 RMK A01 T02610145  RH  049%=      5-min Rain = 0
KEN1 111154Z 23009KT 26/15 A301 RMK A01 T02590145  RH  049%=      5-min Rain = 0
KEN1 111155Z 24009KT 26/15 A301 RMK A01 T02590146  RH  050%=      5-min Rain = 0
KEN1 111156Z 23009KT 26/15 A301 RMK A01 T02580146  RH  050%=      5-min Rain = 0
KEN1 111157Z 23010KT 26/15 A301 RMK A01 T02580145  RH  050%=      5-min Rain = 0
KEN1 111158Z 23010KT 26/15 A301 RMK A01 T02580146  RH  050%=      5-min Rain = 0
KEN1 111159Z 24010KT 26/15 A3011 RMK A01 T02590146  RH  050%=      5-min Rain = 0
KEN1 111200Z 24010KT 26/15 A3011 RMK A01 T02590146  RH  050%=      5-min Rain = 0
KEN1 111201Z 23010KT 26/15 A3011 RMK A01 T02600146  RH  049%=      5-min Rain = 0
KEN1 111202Z 23010KT 26/15 A301 RMK A01 T02600146  RH  049%=      5-min Rain = 0
KEN1 111203Z 23011KT 26/15 A301 RMK A01 T02600146  RH  049%=      5-min Rain = 0
KEN1 111204Z 23010KT 26/15 A301 RMK A01 T02610146  RH  049%=      5-min Rain = 0
KEN1 111205Z 23010KT 26/15 A301 RMK A01 T02610147  RH  049%=      5-min Rain = 0
KEN1 111206Z 23010KT 26/15 A301 RMK A01 T02610146  RH  049%=      5-min Rain = 0
KEN1 111207Z 23011KT 26/15 A301 RMK A01 T02610147  RH  049%=      5-min Rain = 0
KEN1 111208Z 23010KT 26/15 A301 RMK A01 T02600147  RH  050%=      5-min Rain = 0
KEN1 111209Z 23010KT 26/15 A301 RMK A01 T02600147  RH  050%=      5-min Rain = 0
KEN1 111210Z 23011KT 26/15 A301 RMK A01 T02600147  RH  050%=      5-min Rain = 0
KEN1 111211Z 23011KT 26/15 A301 RMK A01 T02590147  RH  050%=      5-min Rain = 0
KEN1 111212Z 23011KT 26/15 A301 RMK A01 T02590147  RH  050%=      5-min Rain = 0
KEN1 111213Z 23011KT 26/15 A301 RMK A01 T02600147  RH  050%=      5-min Rain = 0
KEN1 111214Z 23011KT 26/15 A301 RMK A01 T02600147  RH  050%=      5-min Rain = 0
KEN1 111215Z 23011KT 26/15 A301 RMK A01 T02600147  RH  050%=      5-min Rain = 0
KEN1 111216Z 23012KT 26/15 A301 RMK A01 T02590147  RH  050%=      5-min Rain = 0
KEN1 111217Z 23011KT 26/15 A301 RMK A01 T02590147  RH  050%=      5-min Rain = 0
KEN1 111218Z 23011KT 26/15 A301 RMK A01 T02590147  RH  050%=      5-min Rain = 0
KEN1 111219Z 23011KT 26/15 A301 RMK A01 T02620148  RH  049%=      5-min Rain = 0
KEN1 111220Z 22011KT 26/15 A301 RMK A01 T02620148  RH  049%=      5-min Rain = 0
KEN1 111221Z 22011KT 26/15 A301 RMK A01 T02620148  RH  049%=      5-min Rain = 0
KEN1 111222Z 22011KT 26/15 A301 RMK A01 T02620148  RH  049%=      5-min Rain = 0
KEN1 111223Z 22010KT 26/15 A301 RMK A01 T02620148  RH  049%=      5-min Rain = 0
KEN1 111224Z 22011KT 26/15 A301 RMK A01 T02630148  RH  049%=      5-min Rain = 0
KEN1 111225Z 22010KT 26/15 A301 RMK A01 T02630148  RH  049%=      5-min Rain = 0
KEN1 111226Z 22011KT 26/15 A301 RMK A01 T02630148  RH  049%=      5-min Rain = 0
KEN1 111227Z 22010KT 26/15 A301 RMK A01 T02640149  RH  049%=      5-min Rain = 0
KEN1 111228Z 22010KT 26/15 A301 RMK A01 T02640149  RH  049%=      5-min Rain = 0
KEN1 111229Z 22011KT 26/15 A301 RMK A01 T02640149  RH  049%=      5-min Rain = 0
KEN1 111230Z 21010KT 27/15 A301 RMK A01 T02650149  RH  049%=      5-min Rain = 0
KEN1 111231Z 22011KT 27/15 A301 RMK A01 T02660149  RH  049%=      5-min Rain = 0
KEN1 111232Z 21010KT 27/15 A301 RMK A01 T02670149  RH  048%=      5-min Rain = 0
KEN1 111233Z 21010KT 27/15 A301 RMK A01 T02680150  RH  048%=      5-min Rain = 0
KEN1 111234Z 22010KT 27/15 A301 RMK A01 T02670149  RH  048%=      5-min Rain = 0
KEN1 111235Z 21009KT 27/15 A301 RMK A01 T02680149  RH  048%=      5-min Rain = 0
KEN1 111236Z 21009KT 27/15 A301 RMK A01 T02680150  RH  048%=      5-min Rain = 0
KEN1 111237Z 21009KT 27/15 A301 RMK A01 T02680150  RH  048%=      5-min Rain = 0
KEN1 111238Z 21009KT 27/15 A301 RMK A01 T02680150  RH  048%=      5-min Rain = 0
KEN1 111239Z 21008KT 27/15 A301 RMK A01 T02680150  RH  048%=      5-min Rain = 0
KEN1 111240Z 21009KT 27/15 A301 RMK A01 T02690150  RH  048%=      5-min Rain = 0
KEN1 111241Z 21008KT 27/15 A301 RMK A01 T02690150  RH  048%=      5-min Rain = 0
KEN1 111242Z 21009KT 27/15 A301 RMK A01 T02690151  RH  048%=      5-min Rain = 0
KEN1 111243Z 21009KT 27/15 A301 RMK A01 T02690151  RH  048%=      5-min Rain = 0
KEN1 111244Z 21010KT 27/15 A301 RMK A01 T02700151  RH  048%=      5-min Rain = 0
KEN1 111245Z 21009KT 27/15 A301 RMK A01 T02700150  RH  048%=      5-min Rain = 0
KEN1 111246Z 21008KT 27/15 A301 RMK A01 T02710151  RH  048%=      5-min Rain = 0
KEN1 111247Z 22007KT 27/15 A301 RMK A01 T02710151  RH  048%=      5-min Rain = 0
KEN1 111248Z 22007KT 27/15 A301 RMK A01 T02700151  RH  048%=      5-min Rain = 0
KEN1 111249Z 21008KT 27/15 A301 RMK A01 T02710152  RH  048%=      5-min Rain = 0
KEN1 111250Z 21008KT 27/15 A301 RMK A01 T02710151  RH  048%=      5-min Rain = 0
KEN1 111251Z 22008KT 27/15 A301 RMK A01 T02720151  RH  047%=      5-min Rain = 0
KEN1 111252Z 22009KT 27/15 A301 RMK A01 T02730151  RH  047%=      5-min Rain = 0
KEN1 111253Z 22007KT 27/15 A301 RMK A01 T02740152  RH  047%=      5-min Rain = 0
KEN1 111254Z 22007KT 27/15 A301 RMK A01 T02740152  RH  047%=      5-min Rain = 0
KEN1 111255Z 22007KT 27/15 A301 RMK A01 T02740152  RH  047%=      5-min Rain = 0
KEN1 111256Z 22008KT 27/15 A301 RMK A01 T02740152  RH  047%=      5-min Rain = 0
KEN1 111257Z 22007KT 28/15 A301 RMK A01 T02750152  RH  047%=      5-min Rain = 0
KEN1 111258Z 23007KT 28/15 A301 RMK A01 T02760153  RH  047%=      5-min Rain = 0
KEN1 111259Z 23007KT 28/15 A301 RMK A01 T02760153  RH  047%=      5-min Rain = 0
KEN1 111300Z 22006KT 28/15 A301 RMK A01 T02760152  RH  047%=      5-min Rain = 0
KEN1 111301Z 22006KT 28/15 A3011 RMK A01 T02770153  RH  047%=      5-min Rain = 0
KEN1 111302Z 22005KT 28/15 A3011 RMK A01 T02770153  RH  047%=      5-min Rain = 0
KEN1 111303Z 21006KT 28/15 A3011 RMK A01 T02780154  RH  047%=      5-min Rain = 0
KEN1 111304Z 22005KT 28/15 A3011 RMK A01 T02790153  RH  046%=      5-min Rain = 0
KEN1 111305Z 21005KT 28/15 A3011 RMK A01 T02800153  RH  046%=      5-min Rain = 0
KEN1 111306Z 22005KT 28/15 A3011 RMK A01 T02790154  RH  046%=      5-min Rain = 0
KEN1 111307Z 22005KT 28/15 A3011 RMK A01 T02790153  RH  046%=      5-min Rain = 0
KEN1 111308Z 22005KT 28/15 A3011 RMK A01 T02800153  RH  046%=      5-min Rain = 0
KEN1 111309Z 20003KT 28/15 A3011 RMK A01 T02800152  RH  046%=      5-min Rain = 0
KEN1 111310Z 22004KT 28/15 A3011 RMK A01 T02800154  RH  046%=      5-min Rain = 0
KEN1 111311Z 22006KT 28/15 A3011 RMK A01 T02810154  RH  046%=      5-min Rain = 0
KEN1 111312Z 22005KT 28/15 A3011 RMK A01 T02820153  RH  045%=      5-min Rain = 0
KEN1 111313Z 21004KT 28/15 A3011 RMK A01 T02820153  RH  045%=      5-min Rain = 0
KEN1 111314Z 22005KT 28/15 A3011 RMK A01 T02830153  RH  045%=      5-min Rain = 0
KEN1 111315Z 23003KT 28/15 A3011 RMK A01 T02830154  RH  045%=      5-min Rain = 0
KEN1 111316Z 22005KT 28/15 A3011 RMK A01 T02840153  RH  045%=      5-min Rain = 0
KEN1 111317Z 21006KT 28/15 A3011 RMK A01 T02840152  RH  044%=      5-min Rain = 0
KEN1 111318Z 20003KT 28/15 A3011 RMK A01 T02840150  RH  044%=      5-min Rain = 0
KEN1 111319Z 20004KT 28/15 A3011 RMK A01 T02840152  RH  044%=      5-min Rain = 0
KEN1 111320Z 21005KT 29/15 A3011 RMK A01 T02850153  RH  045%=      5-min Rain = 0
KEN1 111321Z 19004KT 29/15 A3011 RMK A01 T02850153  RH  045%=      5-min Rain = 0
KEN1 111322Z 18004KT 29/15 A3011 RMK A01 T02850153  RH  044%=      5-min Rain = 0
KEN1 111323Z 21008KT 29/15 A3011 RMK A01 T02860153  RH  044%=      5-min Rain = 0
KEN1 111324Z 20005KT 29/15 A3011 RMK A01 T02870154  RH  044%=      5-min Rain = 0
KEN1 111325Z 19007KT 29/15 A3011 RMK A01 T02870154  RH  044%=      5-min Rain = 0
KEN1 111326Z 20006KT 29/15 A3011 RMK A01 T02870153  RH  044%=      5-min Rain = 0
KEN1 111327Z 21007KT 29/15 A3011 RMK A01 T02870153  RH  044%=      5-min Rain = 0
KEN1 111328Z 21008KT 29/15 A3011 RMK A01 T02870153  RH  044%=      5-min Rain = 0
KEN1 111329Z 20008KT 29/15 A3011 RMK A01 T02870153  RH  044%=      5-min Rain = 0
KEN1 111330Z 20009KT 29/15 A3011 RMK A01 T02870153  RH  044%=      5-min Rain = 0
KEN1 111331Z 20009KT 29/15 A3011 RMK A01 T02870153  RH  044%=      5-min Rain = 0
KEN1 111332Z 21009KT 29/15 A3011 RMK A01 T02870153  RH  044%=      5-min Rain = 0
KEN1 111333Z 21012KT 29/15 A3011 RMK A01 T02870154  RH  044%=      5-min Rain = 0
KEN1 111334Z 21011KT 29/15 A3011 RMK A01 T02890154  RH  044%=      5-min Rain = 0
KEN1 111335Z 22011KT 29/15 A3011 RMK A01 T02890154  RH  044%=      5-min Rain = 0
KEN1 111336Z 21008KT 29/16 A3011 RMK A01 T02900155  RH  044%=      5-min Rain = 0
KEN1 111337Z 22009KT 29/16 A3011 RMK A01 T02910156  RH  044%=      5-min Rain = 0
KEN1 111338Z 22010KT 29/16 A3011 RMK A01 T02910155  RH  044%=      5-min Rain = 0
KEN1 111339Z 21009KT 29/16 A3011 RMK A01 T02920155  RH  043%=      5-min Rain = 0
KEN1 111340Z 22008KT 29/16 A3011 RMK A01 T02920156  RH  044%=      5-min Rain = 0
KEN1 111341Z 23009KT 29/16 A3011 RMK A01 T02920155  RH  043%=      5-min Rain = 0
KEN1 111342Z 22009KT 29/16 A3011 RMK A01 T02920156  RH  044%=      5-min Rain = 0
KEN1 111343Z 23012KT 29/16 A3011 RMK A01 T02930156  RH  043%=      5-min Rain = 0
KEN1 111344Z 23011KT 29/16 A3011 RMK A01 T02930155  RH  043%=      5-min Rain = 0
KEN1 111345Z 22010KT 29/16 A3011 RMK A01 T02920155  RH  043%=      5-min Rain = 0
KEN1 111346Z 22009KT 29/16 A3011 RMK A01 T02930156  RH  043%=      5-min Rain = 0
KEN1 111347Z 22008KT 29/16 A3011 RMK A01 T02930156  RH  043%=      5-min Rain = 0
KEN1 111348Z 23011KT 30/16 A3011 RMK A01 T02950156  RH  043%=      5-min Rain = 0
KEN1 111349Z 22009KT 30/16 A3011 RMK A01 T02950156  RH  043%=      5-min Rain = 0
KEN1 111350Z 21008KT 30/16 A3011 RMK A01 T02950157  RH  043%=      5-min Rain = 0
KEN1 111351Z 22010KT 30/16 A3011 RMK A01 T02970157  RH  043%=      5-min Rain = 0
KEN1 111352Z 21011KT 30/16 A3011 RMK A01 T02970157  RH  043%=      5-min Rain = 0
KEN1 111353Z 21013KT 30/16 A3011 RMK A01 T02970156  RH  042%=      5-min Rain = 0
KEN1 111354Z 21011KT 30/16 A3011 RMK A01 T02970156  RH  042%=      5-min Rain = 0
KEN1 111355Z 21012KT 30/16 A3012 RMK A01 T02970156  RH  042%=      5-min Rain = 0
KEN1 111356Z 21010KT 30/16 A3012 RMK A01 T02970156  RH  043%=      5-min Rain = 0
KEN1 111357Z 21009KT 30/16 A3012 RMK A01 T02980158  RH  043%=      5-min Rain = 0
KEN1 111358Z 21012KT 30/16 A3012 RMK A01 T02990156  RH  042%=      5-min Rain = 0
KEN1 111359Z 21013KT 30/16 A3012 RMK A01 T02990156  RH  042%=      5-min Rain = 0
KEN1 111400Z 21011KT 30/16 A3012 RMK A01 T02990157  RH  042%=      5-min Rain = 0
KEN1 111401Z 21010KT 30/16 A3012 RMK A01 T02980157  RH  042%=      5-min Rain = 0
KEN1 111402Z 22010KT 30/16 A3012 RMK A01 T02990157  RH  042%=      5-min Rain = 0
KEN1 111403Z 21011KT 30/16 A3012 RMK A01 T02990157  RH  042%=      5-min Rain = 0
KEN1 111404Z 21010KT 30/16 A3012 RMK A01 T03000156  RH  042%=      5-min Rain = 0
KEN1 111405Z 22011KT 30/16 A3012 RMK A01 T03000157  RH  042%=      5-min Rain = 0
KEN1 111406Z 22011KT 30/16 A3012 RMK A01 T03010157  RH  042%=      5-min Rain = 0
KEN1 111407Z 22011KT 30/16 A3012 RMK A01 T03010156  RH  042%=      5-min Rain = 0
KEN1 111408Z 22010KT 30/16 A3012 RMK A01 T03010157  RH  042%=      5-min Rain = 0
KEN1 111409Z 22010KT 30/16 A3012 RMK A01 T03010158  RH  042%=      5-min Rain = 0
KEN1 111410Z 21009KT 30/16 A3012 RMK A01 T03020157  RH  042%=      5-min Rain = 0
KEN1 111411Z 21011KT 30/16 A3012 RMK A01 T03030157  RH  041%=      5-min Rain = 0
KEN1 111412Z 21012KT 30/16 A3012 RMK A01 T03030156  RH  041%=      5-min Rain = 0
KEN1 111413Z 21010KT 30/16 A3012 RMK A01 T03030157  RH  041%=      5-min Rain = 0
KEN1 111414Z 21011KT 30/16 A3012 RMK A01 T03040157  RH  041%=      5-min Rain = 0
KEN1 111415Z 21012KT 31/16 A3012 RMK A01 T03050157  RH  041%=      5-min Rain = 0
KEN1 111416Z 21011KT 31/16 A3012 RMK A01 T03060156  RH  041%=      5-min Rain = 0
KEN1 111417Z 22009KT 31/16 A3012 RMK A01 T03060158  RH  041%=      5-min Rain = 0
KEN1 111418Z 21010KT 31/16 A3012 RMK A01 T03070158  RH  040%=      5-min Rain = 0
KEN1 111419Z 21011KT 31/16 A3012 RMK A01 T03080157  RH  040%=      5-min Rain = 0
KEN1 111420Z 21013KT 31/16 A3012 RMK A01 T03080156  RH  040%=      5-min Rain = 0
KEN1 111421Z 22012KT 31/16 A3012 RMK A01 T03070156  RH  040%=      5-min Rain = 0
KEN1 111422Z 21010KT 31/16 A3012 RMK A01 T03060156  RH  040%=      5-min Rain = 0
KEN1 111423Z 21011KT 31/16 A3012 RMK A01 T03070156  RH  040%=      5-min Rain = 0
KEN1 111424Z 21010KT 31/16 A3012 RMK A01 T03070157  RH  040%=      5-min Rain = 0
KEN1 111425Z 21010KT 31/16 A3012 RMK A01 T03070157  RH  040%=      5-min Rain = 0
KEN1 111426Z 21010G15KT 31/16 A3012 RMK A01 T03090159  RH  040%=      5-min Rain = 0
KEN1 111427Z 20012KT 31/16 A3012 RMK A01 T03120157  RH  039%=      5-min Rain = 0
KEN1 111428Z 22013KT 31/16 A3012 RMK A01 T03120155  RH  039%=      5-min Rain = 0
KEN1 111429Z 22014KT 31/15 A3012 RMK A01 T03120154  RH  038%=      5-min Rain = 0
KEN1 111430Z 22011KT 31/15 A3012 RMK A01 T03110153  RH  038%=      5-min Rain = 0
KEN1 111431Z 22012KT 31/16 A3012 RMK A01 T03100155  RH  039%=      5-min Rain = 0
KEN1 111432Z 21012KT 31/16 A3012 RMK A01 T03100156  RH  039%=      5-min Rain = 0
KEN1 111433Z 21013KT 31/16 A3012 RMK A01 T03110155  RH  039%=      5-min Rain = 0
KEN1 111434Z 22011KT 31/16 A3012 RMK A01 T03110155  RH  039%=      5-min Rain = 0
KEN1 111435Z 22012KT 31/16 A3012 RMK A01 T03110156  RH  039%=      5-min Rain = 0
KEN1 111436Z 21012KT 31/15 A3012 RMK A01 T03100154  RH  039%=      5-min Rain = 0
KEN1 111437Z 21011KT 31/16 A3012 RMK A01 T03100155  RH  039%=      5-min Rain = 0
KEN1 111438Z 21011KT 31/16 A3012 RMK A01 T03100155  RH  039%=      5-min Rain = 0
KEN1 111439Z 22010KT 31/15 A3012 RMK A01 T03110154  RH  039%=      5-min Rain = 0
KEN1 111440Z 22012KT 31/16 A3012 RMK A01 T03110155  RH  039%=      5-min Rain = 0
KEN1 111441Z 22010KT 31/15 A3012 RMK A01 T03110153  RH  038%=      5-min Rain = 0
KEN1 111442Z 21010KT 31/16 A3012 RMK A01 T03110156  RH  039%=      5-min Rain = 0
KEN1 111443Z 21009KT 31/16 A3012 RMK A01 T03110156  RH  039%=      5-min Rain = 0
KEN1 111444Z 21010KT 31/16 A3012 RMK A01 T03110157  RH  039%=      5-min Rain = 0
KEN1 111445Z 22011KT 31/16 A3012 RMK A01 T03130156  RH  039%=      5-min Rain = 0
KEN1 111446Z 22011KT 31/15 A3012 RMK A01 T03140152  RH  037%=      5-min Rain = 0
KEN1 111447Z 24010KT 31/16 A3012 RMK A01 T03140155  RH  038%=      5-min Rain = 0
KEN1 111448Z 24009KT 31/15 A3012 RMK A01 T03140154  RH  038%=      5-min Rain = 0
KEN1 111449Z 22008KT 31/16 A3012 RMK A01 T03140157  RH  039%=      5-min Rain = 0
KEN1 111450Z 22008KT 32/16 A3012 RMK A01 T03160158  RH  039%=      5-min Rain = 0
KEN1 111451Z 23008KT 32/16 A3012 RMK A01 T03180155  RH  038%=      5-min Rain = 0
KEN1 111452Z 22008KT 32/16 A3012 RMK A01 T03190156  RH  038%=      5-min Rain = 0
KEN1 111453Z 21007KT 32/16 A3012 RMK A01 T03190156  RH  037%=      5-min Rain = 0
KEN1 111454Z 22008KT 32/16 A3012 RMK A01 T03190157  RH  037%=      5-min Rain = 0
KEN1 111455Z 22008KT 32/15 A3012 RMK A01 T03200154  RH  037%=      5-min Rain = 0
KEN1 111456Z 23010KT 32/15 A3012 RMK A01 T03190152  RH  037%=      5-min Rain = 0
KEN1 111457Z 23009KT 32/15 A3012 RMK A01 T03190152  RH  036%=      5-min Rain = 0
KEN1 111458Z 23006KT 32/15 A3012 RMK A01 T03180151  RH  036%=      5-min Rain = 0
KEN1 111459Z 23009KT 32/15 A3012 RMK A01 T03180153  RH  037%=      5-min Rain = 0
KEN1 111500Z 25009KT 32/15 A3013 RMK A01 T03200147  RH  035%=      5-min Rain = 0
KEN1 111501Z 25006KT 32/15 A3013 RMK A01 T03210146  RH  035%=      5-min Rain = 0
KEN1 111502Z 24004KT 32/15 A3012 RMK A01 T03210145  RH  034%=      5-min Rain = 0
KEN1 111503Z 21007KT 32/15 A3012 RMK A01 T03190147  RH  035%=      5-min Rain = 0
KEN1 111504Z 22007KT 32/15 A3012 RMK A01 T03200151  RH  036%=      5-min Rain = 0
KEN1 111505Z 24006KT 32/15 A3012 RMK A01 T03210153  RH  036%=      5-min Rain = 0
KEN1 111506Z 26007KT 32/15 A3012 RMK A01 T03230150  RH  035%=      5-min Rain = 0
KEN1 111507Z 26008KT 33/15 A3012 RMK A01 T03250147  RH  034%=      5-min Rain = 0
KEN1 111508Z 24008KT 33/15 A3012 RMK A01 T03270145  RH  033%=      5-min Rain = 0
KEN1 111509Z 25006KT 33/14 A3012 RMK A01 T03250144  RH  033%=      5-min Rain = 0
KEN1 111510Z 25008KT 33/15 A3012 RMK A01 T03250147  RH  034%=      5-min Rain = 0
KEN1 111511Z 24009KT 33/15 A3012 RMK A01 T03260146  RH  034%=      5-min Rain = 0
KEN1 111512Z 25010KT 33/15 A3012 RMK A01 T03250147  RH  034%=      5-min Rain = 0
KEN1 111513Z 24007KT 33/15 A3012 RMK A01 T03250147  RH  034%=      5-min Rain = 0
KEN1 111514Z 24006KT 33/15 A3012 RMK A01 T03250146  RH  034%=      5-min Rain = 0
KEN1 111515Z 24005G10KT 32/14 A3012 RMK A01 T03240144  RH  034%=      5-min Rain = 0
KEN1 111516Z 23010KT 32/15 A3012 RMK A01 T03230146  RH  034%=      5-min Rain = 0
KEN1 111517Z 24008KT 33/14 A3012 RMK A01 T03250144  RH  034%=      5-min Rain = 0
KEN1 111518Z 24008KT 32/15 A3012 RMK A01 T03230146  RH  034%=      5-min Rain = 0
KEN1 111519Z 25009KT 33/15 A3012 RMK A01 T03250146  RH  034%=      5-min Rain = 0
KEN1 111520Z 26009KT 33/15 A3012 RMK A01 T03260145  RH  033%=      5-min Rain = 0
KEN1 111521Z 28006KT 33/14 A3012 RMK A01 T03260143  RH  033%=      5-min Rain = 0
KEN1 111522Z 29005KT 32/15 A3012 RMK A01 T03230145  RH  034%=      5-min Rain = 0
KEN1 111523Z 29005KT 32/15 A3012 RMK A01 T03230145  RH  034%=      5-min Rain = 0
KEN1 111524Z 28005KT 33/15 A3012 RMK A01 T03250146  RH  034%=      5-min Rain = 0
KEN1 111525Z 26006G13KT 33/15 A3012 RMK A01 T03250147  RH  034%=      5-min Rain = 0
KEN1 111526Z 27009KT 33/15 A3012 RMK A01 T03270146  RH  034%=      5-min Rain = 0
KEN1 111527Z 28006KT 33/14 A3012 RMK A01 T03280144  RH  033%=      5-min Rain = 0
KEN1 111528Z 27005KT 33/15 A3012 RMK A01 T03280145  RH  033%=      5-min Rain = 0
KEN1 111529Z 24007KT 33/15 A3012 RMK A01 T03280147  RH  033%=      5-min Rain = 0
KEN1 111530Z 25007KT 33/15 A3012 RMK A01 T03300145  RH  033%=      5-min Rain = 0
KEN1 111531Z 30008KT 33/14 A3012 RMK A01 T03310141  RH  032%=      5-min Rain = 0
KEN1 111532Z 28008KT 33/14 A3012 RMK A01 T03310141  RH  032%=      5-min Rain = 0
KEN1 111533Z 28007KT 33/14 A3012 RMK A01 T03300143  RH  032%=      5-min Rain = 0
KEN1 111534Z 30007KT 33/14 A3013 RMK A01 T03320142  RH  032%=      5-min Rain = 0
KEN1 111535Z 28007KT 33/14 A3013 RMK A01 T03330144  RH  032%=      5-min Rain = 0
KEN1 111536Z 27006KT 33/15 A3013 RMK A01 T03340147  RH  033%=      5-min Rain = 0
KEN1 111537Z 29007KT 34/14 A3013 RMK A01 T03350139  RH  031%=      5-min Rain = 0
KEN1 111538Z 27006KT 33/14 A3013 RMK A01 T03320136  RH  031%=      5-min Rain = 0
KEN1 111539Z 25006KT 33/14 A3013 RMK A01 T03300137  RH  031%=      5-min Rain = 0
KEN1 111540Z 28009KT 33/14 A3013 RMK A01 T03300139  RH  032%=      5-min Rain = 0
KEN1 111541Z 29009KT 33/14 A3013 RMK A01 T03300137  RH  031%=      5-min Rain = 0
KEN1 111542Z 30010KT 33/14 A3013 RMK A01 T03310136  RH  031%=      5-min Rain = 0
KEN1 111543Z 30008KT 33/14 A3013 RMK A01 T03290139  RH  032%=      5-min Rain = 0
KEN1 111544Z 29008KT 33/14 A3013 RMK A01 T03300138  RH  031%=      5-min Rain = 0
KEN1 111545Z 29006G11KT 33/14 A3013 RMK A01 T03320139  RH  031%=      5-min Rain = 0
KEN1 111546Z 30007KT 33/14 A3013 RMK A01 T03290140  RH  032%=      5-min Rain = 0
KEN1 111547Z 30008KT 33/14 A3013 RMK A01 T03300141  RH  032%=      5-min Rain = 0
KEN1 111548Z 31006KT 33/14 A3013 RMK A01 T03300141  RH  032%=      5-min Rain = 0
KEN1 111549Z 30009KT 33/14 A3013 RMK A01 T03300140  RH  032%=      5-min Rain = 0
KEN1 111550Z 29009KT 33/14 A3013 RMK A01 T03300141  RH  032%=      5-min Rain = 0
KEN1 111551Z 30009KT 33/14 A3013 RMK A01 T03300140  RH  032%=      5-min Rain = 0
KEN1 111552Z 29006KT 33/14 A3013 RMK A01 T03300141  RH  032%=      5-min Rain = 0
KEN1 111553Z 28005KT 33/14 A3013 RMK A01 T03320144  RH  032%=      5-min Rain = 0
KEN1 111554Z 29006KT 34/14 A3013 RMK A01 T03350142  RH  031%=      5-min Rain = 0
KEN1 111555Z 28004KT 33/14 A3013 RMK A01 T03340141  RH  031%=      5-min Rain = 0
KEN1 111556Z 29005KT 33/14 A3013 RMK A01 T03330142  RH  032%=      5-min Rain = 0
KEN1 111557Z 28004KT 33/14 A3013 RMK A01 T03320141  RH  032%=      5-min Rain = 0
KEN1 111558Z 27007KT 33/14 A3013 RMK A01 T03310142  RH  032%=      5-min Rain = 0
KEN1 111559Z 27006KT 33/14 A3013 RMK A01 T03300140  RH  032%=      5-min Rain = 0
KEN1 111600Z 30008KT 33/15 A3013 RMK A01 T03300145  RH  033%=      5-min Rain = 0
KEN1 111601Z 30007KT 33/15 A3013 RMK A01 T03320146  RH  033%=      5-min Rain = 0
KEN1 111602Z 30007KT 33/14 A3013 RMK A01 T03340144  RH  032%=      5-min Rain = 0
KEN1 111603Z 30008KT 33/14 A3013 RMK A01 T03340143  RH  032%=      5-min Rain = 0
KEN1 111604Z 30007KT 33/14 A3013 RMK A01 T03320143  RH  032%=      5-min Rain = 0
KEN1 111605Z 28006KT 33/14 A3013 RMK A01 T03310143  RH  032%=      5-min Rain = 0
KEN1 111606Z 31005KT 33/14 A3013 RMK A01 T03300144  RH  032%=      5-min Rain = 0
KEN1 111607Z 26005KT 33/15 A3013 RMK A01 T03310145  RH  033%=      5-min Rain = 0
KEN1 111608Z 27005KT 33/15 A3013 RMK A01 T03320147  RH  033%=      5-min Rain = 0
KEN1 111609Z 27004KT 33/14 A3013 RMK A01 T03340144  RH  032%=      5-min Rain = 0
KEN1 111610Z 22004KT 33/15 A3013 RMK A01 T03330146  RH  032%=      5-min Rain = 0
KEN1 111611Z 24004KT 33/14 A3013 RMK A01 T03330143  RH  032%=      5-min Rain = 0
KEN1 111612Z 24006KT 33/14 A3013 RMK A01 T03320144  RH  032%=      5-min Rain = 0
KEN1 111613Z 29006KT 33/15 A3013 RMK A01 T03320145  RH  032%=      5-min Rain = 0
KEN1 111614Z 28006KT 33/15 A3013 RMK A01 T03330145  RH  032%=      5-min Rain = 0
KEN1 111615Z 29008KT 33/15 A3013 RMK A01 T03340150  RH  033%=      5-min Rain = 0
KEN1 111616Z 30009KT 34/15 A3013 RMK A01 T03370147  RH  032%=      5-min Rain = 0
KEN1 111617Z 30007KT 34/15 A3013 RMK A01 T03370145  RH  032%=      5-min Rain = 0
KEN1 111618Z 29005KT 34/14 A3013 RMK A01 T03350144  RH  032%=      5-min Rain = 0
KEN1 111619Z 28003KT 33/14 A3013 RMK A01 T03330142  RH  032%=      5-min Rain = 0
KEN1 111620Z 26004KT 33/14 A3013 RMK A01 T03320143  RH  032%=      5-min Rain = 0
KEN1 111621Z 30005KT 33/14 A3013 RMK A01 T03330144  RH  032%=      5-min Rain = 0
KEN1 111622Z 27004KT 33/15 A3013 RMK A01 T03330145  RH  032%=      5-min Rain = 0
KEN1 111623Z 30005KT 33/15 A3013 RMK A01 T03320146  RH  033%=      5-min Rain = 0
KEN1 111624Z 29005KT 33/15 A3013 RMK A01 T03330146  RH  033%=      5-min Rain = 0
KEN1 111625Z 28008KT 33/15 A3013 RMK A01 T03330147  RH  033%=      5-min Rain = 0
KEN1 111626Z 27004KT 34/15 A3013 RMK A01 T03350147  RH  032%=      5-min Rain = 0
KEN1 111627Z 26003KT 34/15 A3013 RMK A01 T03350146  RH  032%=      5-min Rain = 0
KEN1 111628Z 26004KT 34/15 A3014 RMK A01 T03350149  RH  033%=      5-min Rain = 0
KEN1 111629Z 25004KT 34/15 A3013 RMK A01 T03350145  RH  032%=      5-min Rain = 0
KEN1 111630Z 26002KT 33/15 A3013 RMK A01 T03340145  RH  032%=      5-min Rain = 0
KEN1 111631Z 29004KT 33/15 A3014 RMK A01 T03340147  RH  032%=      5-min Rain = 0
KEN1 111632Z 31004KT 34/15 A3013 RMK A01 T03360150  RH  033%=      5-min Rain = 0
KEN1 111633Z 31002KT 34/15 A3013 RMK A01 T03380145  RH  032%=      5-min Rain = 0
KEN1 111634Z 00001KT 34/15 A3013 RMK A01 T03370146  RH  032%=      5-min Rain = 0
KEN1 111635Z 27000KT 34/15 A3013 RMK A01 T03360145  RH  032%=      5-min Rain = 0
KEN1 111636Z 24003KT 34/15 A3013 RMK A01 T03380149  RH  032%=      5-min Rain = 0
KEN1 111637Z 25006KT 34/15 A3013 RMK A01 T03400148  RH  032%=      5-min Rain = 0
KEN1 111638Z 27008KT 34/15 A3013 RMK A01 T03420147  RH  031%=      5-min Rain = 0
KEN1 111639Z 29009KT 34/15 A3014 RMK A01 T03430145  RH  031%=      5-min Rain = 0
KEN1 111640Z 29008KT 34/14 A3014 RMK A01 T03420142  RH  030%=      5-min Rain = 0
KEN1 111641Z 30006KT 34/14 A3014 RMK A01 T03400142  RH  030%=      5-min Rain = 0
KEN1 111642Z 28006KT 34/15 A3014 RMK A01 T03410145  RH  031%=      5-min Rain = 0
KEN1 111643Z 28004KT 34/14 A3014 RMK A01 T03430143  RH  030%=      5-min Rain = 0
KEN1 111644Z 31006KT 34/15 A3014 RMK A01 T03430146  RH  031%=      5-min Rain = 0
KEN1 111645Z 32007KT 34/15 A3013 RMK A01 T03440149  RH  031%=      5-min Rain = 0
KEN1 111646Z 32005KT 35/15 A3013 RMK A01 T03450146  RH  030%=      5-min Rain = 0
KEN1 111647Z 34003KT 34/15 A3013 RMK A01 T03430146  RH  031%=      5-min Rain = 0
KEN1 111648Z 32002KT 34/14 A3013 RMK A01 T03430144  RH  030%=      5-min Rain = 0
KEN1 111649Z 29004KT 34/15 A3014 RMK A01 T03420145  RH  031%=      5-min Rain = 0
KEN1 111650Z 30004KT 34/14 A3014 RMK A01 T03420143  RH  030%=      5-min Rain = 0
KEN1 111651Z 29002KT 34/14 A3013 RMK A01 T03410142  RH  030%=      5-min Rain = 0
KEN1 111652Z 28001KT 34/14 A3013 RMK A01 T03400143  RH  031%=      5-min Rain = 0
KEN1 111653Z 21002KT 34/14 A3013 RMK A01 T03420144  RH  031%=      5-min Rain = 0
KEN1 111654Z 20002KT 34/15 A3013 RMK A01 T03440145  RH  030%=      5-min Rain = 0
KEN1 111655Z 25001KT 34/14 A3013 RMK A01 T03440144  RH  030%=      5-min Rain = 0
KEN1 111656Z 25002KT 34/15 A3013 RMK A01 T03440146  RH  030%=      5-min Rain = 0
KEN1 111657Z 25007KT 35/15 A3013 RMK A01 T03460146  RH  030%=      5-min Rain = 0
KEN1 111658Z 29005KT 35/15 A3013 RMK A01 T03480147  RH  030%=      5-min Rain = 0
KEN1 111659Z 31006KT 35/14 A3013 RMK A01 T03510144  RH  029%=      5-min Rain = 0
KEN1 111700Z 31004KT 35/14 A3013 RMK A01 T03480142  RH  029%=      5-min Rain = 0
KEN1 111701Z 33005KT 35/14 A3013 RMK A01 T03480143  RH  029%=      5-min Rain = 0
KEN1 111702Z 33005KT 35/14 A3013 RMK A01 T03480140  RH  029%=      5-min Rain = 0
KEN1 111703Z 35006KT 35/14 A3013 RMK A01 T03480142  RH  029%=      5-min Rain = 0
KEN1 111704Z 02007KT 35/14 A3013 RMK A01 T03490140  RH  029%=      5-min Rain = 0
KEN1 111705Z 01007KT 35/14 A3013 RMK A01 T03480142  RH  029%=      5-min Rain = 0
KEN1 111706Z 31007KT 35/14 A3013 RMK A01 T03490143  RH  029%=      5-min Rain = 0
KEN1 111707Z 31005KT 35/14 A3013 RMK A01 T03510138  RH  028%=      5-min Rain = 0
KEN1 111708Z 32006KT 35/14 A3013 RMK A01 T03490140  RH  029%=      5-min Rain = 0
KEN1 111709Z 31004KT 35/14 A3013 RMK A01 T03480139  RH  029%=      5-min Rain = 0
KEN1 111710Z 29004KT 35/14 A3013 RMK A01 T03470139  RH  029%=      5-min Rain = 0
KEN1 111711Z 33003KT 35/14 A3013 RMK A01 T03460139  RH  029%=      5-min Rain = 0
KEN1 111712Z 32005KT 35/14 A3013 RMK A01 T03470144  RH  030%=      5-min Rain = 0
KEN1 111713Z 27006KT 35/15 A3013 RMK A01 T03520146  RH  029%=      5-min Rain = 0
KEN1 111714Z 26005KT 35/14 A3013 RMK A01 T03520144  RH  029%=      5-min Rain = 0
KEN1 111715Z 28007KT 35/14 A3013 RMK A01 T03500143  RH  029%=      5-min Rain = 0
KEN1 111716Z 27006KT 35/14 A3013 RMK A01 T03500143  RH  029%=      5-min Rain = 0
KEN1 111717Z 26006KT 35/14 A3013 RMK A01 T03500141  RH  029%=      5-min Rain = 0
KEN1 111718Z 29004KT 35/14 A3013 RMK A01 T03500143  RH  029%=      5-min Rain = 0
KEN1 111719Z 27003KT 35/14 A3013 RMK A01 T03500141  RH  029%=      5-min Rain = 0
KEN1 111720Z 31005KT 35/14 A3013 RMK A01 T03510144  RH  029%=      5-min Rain = 0
KEN1 111721Z 32005KT 35/14 A3013 RMK A01 T03530142  RH  028%=      5-min Rain = 0
KEN1 111722Z 33005KT 35/14 A3013 RMK A01 T03530141  RH  028%=      5-min Rain = 0
KEN1 111723Z 33007KT 35/14 A3014 RMK A01 T03520142  RH  028%=      5-min Rain = 0
KEN1 111724Z 36004KT 35/14 A3014 RMK A01 T03510139  RH  028%=      5-min Rain = 0
KEN1 111725Z 02002KT 35/14 A3014 RMK A01 T03500139  RH  028%=      5-min Rain = 0
KEN1 111726Z 05001KT 35/14 A3014 RMK A01 T03500138  RH  028%=      5-min Rain = 0
KEN1 111727Z 07002KT 35/14 A3013 RMK A01 T03510136  RH  028%=      5-min Rain = 0
KEN1 111728Z 09002KT 35/14 A3013 RMK A01 T03510138  RH  028%=      5-min Rain = 0
KEN1 111729Z 07002KT 35/14 A3013 RMK A01 T03510140  RH  028%=      5-min Rain = 0
KEN1 111730Z 04002KT 35/14 A3013 RMK A01 T03520142  RH  028%=      5-min Rain = 0
KEN1 111731Z 34000KT 36/14 A3013 RMK A01 T03550143  RH  028%=      5-min Rain = 0
KEN1 111732Z 34002KT 36/14 A3013 RMK A01 T03570141  RH  027%=      5-min Rain = 0
KEN1 111733Z 31005KT 36/14 A3013 RMK A01 T03590144  RH  028%=      5-min Rain = 0
KEN1 111734Z 32003KT 36/14 A3013 RMK A01 T03570140  RH  027%=      5-min Rain = 0
KEN1 111735Z 35004KT 36/14 A3013 RMK A01 T03560143  RH  028%=      5-min Rain = 0
KEN1 111736Z 35001KT 36/14 A3013 RMK A01 T03550140  RH  028%=      5-min Rain = 0
KEN1 111737Z 35002KT 35/14 A3013 RMK A01 T03540140  RH  028%=      5-min Rain = 0
KEN1 111738Z 34001KT 35/14 A3013 RMK A01 T03540137  RH  027%=      5-min Rain = 0
KEN1 111739Z 35000KT 35/14 A3013 RMK A01 T03530142  RH  028%=      5-min Rain = 0
KEN1 111740Z 05001KT 36/15 A3013 RMK A01 T03560147  RH  029%=      5-min Rain = 0
KEN1 111741Z 00001KT 36/15 A3013 RMK A01 T03600145  RH  028%=      5-min Rain = 0
KEN1 111742Z 29003KT 36/15 A3013 RMK A01 T03620146  RH  028%=      5-min Rain = 0
KEN1 111743Z 31003KT 36/15 A3013 RMK A01 T03640145  RH  027%=      5-min Rain = 0
KEN1 111744Z 32002KT 36/14 A3013 RMK A01 T03640143  RH  027%=      5-min Rain = 0
KEN1 111745Z 27001KT 36/14 A3013 RMK A01 T03640144  RH  027%=      5-min Rain = 0
KEN1 111746Z 25002KT 36/14 A3013 RMK A01 T03640143  RH  027%=      5-min Rain = 0
KEN1 111747Z 25004KT 36/14 A3013 RMK A01 T03640144  RH  027%=      5-min Rain = 0
KEN1 111748Z 35004KT 37/15 A3013 RMK A01 T03660147  RH  027%=      5-min Rain = 0
KEN1 111749Z 10003KT 37/14 A3013 RMK A01 T03670144  RH  026%=      5-min Rain = 0
KEN1 111750Z 22004KT 37/14 A3013 RMK A01 T03660143  RH  026%=      5-min Rain = 0
KEN1 111751Z 32004KT 37/14 A3013 RMK A01 T03650142  RH  027%=      5-min Rain = 0
KEN1 111752Z 06003KT 37/14 A3013 RMK A01 T03650143  RH  027%=      5-min Rain = 0
KEN1 111753Z 06005KT 37/14 A3013 RMK A01 T03650142  RH  026%=      5-min Rain = 0
KEN1 111754Z 08006KT 37/15 A3013 RMK A01 T03650148  RH  028%=      5-min Rain = 0
KEN1 111755Z 08005KT 37/15 A3013 RMK A01 T03660145  RH  027%=      5-min Rain = 0
KEN1 111756Z 09006KT 37/15 A3013 RMK A01 T03660147  RH  027%=      5-min Rain = 0
KEN1 111757Z 12005KT 37/14 A3013 RMK A01 T03660144  RH  027%=      5-min Rain = 0
KEN1 111758Z 14004KT 36/14 A3013 RMK A01 T03640141  RH  026%=      5-min Rain = 0
KEN1 111759Z 12004KT 36/14 A3013 RMK A01 T03630140  RH  026%=      5-min Rain = 0
KEN1 111800Z 09005KT 36/15 A3013 RMK A01 T03630145  RH  027%=      5-min Rain = 0
KEN1 111801Z 04006KT 37/15 A3013 RMK A01 T03660148  RH  027%=      5-min Rain = 0
KEN1 111802Z 07005KT 37/14 A3013 RMK A01 T03680143  RH  026%=      5-min Rain = 0
KEN1 111803Z 12004KT 37/14 A3013 RMK A01 T03660136  RH  025%=      5-min Rain = 0
KEN1 111804Z 15003KT 36/14 A3013 RMK A01 T03620139  RH  026%=      5-min Rain = 0
KEN1 111805Z 17003KT 36/14 A3013 RMK A01 T03610141  RH  027%=      5-min Rain = 0
KEN1 111806Z 18002KT 36/14 A3013 RMK A01 T03620138  RH  026%=      5-min Rain = 0
KEN1 111807Z 20001KT 36/14 A3013 RMK A01 T03620137  RH  026%=      5-min Rain = 0
KEN1 111808Z 15002KT 36/14 A3013 RMK A01 T03620139  RH  026%=      5-min Rain = 0
KEN1 111809Z 11005KT 37/14 A3013 RMK A01 T03650140  RH  026%=      5-min Rain = 0
KEN1 111810Z 11005KT 37/14 A3013 RMK A01 T03660142  RH  026%=      5-min Rain = 0
KEN1 111811Z 12003KT 37/14 A3013 RMK A01 T03660141  RH  026%=      5-min Rain = 0
KEN1 111812Z 09001KT 36/14 A3013 RMK A01 T03640138  RH  026%=      5-min Rain = 0
KEN1 111813Z 04001KT 36/14 A3012 RMK A01 T03630142  RH  027%=      5-min Rain = 0
KEN1 111814Z 08002KT 36/14 A3012 RMK A01 T03630140  RH  027%=      5-min Rain = 0
KEN1 111815Z 18002KT 36/15 A3012 RMK A01 T03640145  RH  027%=      5-min Rain = 0
KEN1 111816Z 18003KT 37/14 A3012 RMK A01 T03660143  RH  027%=      5-min Rain = 0
KEN1 111817Z 16003KT 37/14 A3012 RMK A01 T03680143  RH  026%=      5-min Rain = 0
KEN1 111818Z 18004KT 37/14 A3012 RMK A01 T03690144  RH  026%=      5-min Rain = 0
KEN1 111819Z 19005KT 37/14 A3012 RMK A01 T03710142  RH  026%=      5-min Rain = 0
KEN1 111820Z 19005KT 37/14 A3012 RMK A01 T03700141  RH  026%=      5-min Rain = 0
KEN1 111821Z 19004KT 37/14 A3012 RMK A01 T03680141  RH  026%=      5-min Rain = 0
KEN1 111822Z 20003KT 37/14 A3012 RMK A01 T03680142  RH  026%=      5-min Rain = 0
KEN1 111823Z 21002KT 37/14 A3012 RMK A01 T03680141  RH  026%=      5-min Rain = 0
KEN1 111824Z 20002KT 37/14 A3012 RMK A01 T03690142  RH  026%=      5-min Rain = 0
KEN1 111825Z 26003KT 37/14 A3012 RMK A01 T03710143  RH  026%=      5-min Rain = 0
KEN1 111826Z 01002KT 37/14 A3012 RMK A01 T03720142  RH  025%=      5-min Rain = 0
KEN1 111827Z 29001KT 37/14 A3012 RMK A01 T03730142  RH  025%=      5-min Rain = 0
KEN1 111828Z 33001KT 37/14 A3012 RMK A01 T03740142  RH  025%=      5-min Rain = 0
KEN1 111829Z 29002KT 38/14 A3012 RMK A01 T03750143  RH  025%=      5-min Rain = 0
KEN1 111830Z 30001KT 38/14 A3012 RMK A01 T03760139  RH  025%=      5-min Rain = 0
KEN1 111831Z 06001KT 38/14 A3012 RMK A01 T03760140  RH  025%=      5-min Rain = 0
KEN1 111832Z 09001KT 38/14 A3012 RMK A01 T03770137  RH  024%=      5-min Rain = 0
KEN1 111833Z 35005KT 38/13 A3012 RMK A01 T03790126  RH  022%=      5-min Rain = 0
KEN1 111834Z 01005KT 38/12 A3012 RMK A01 T03800116  RH  020%=      5-min Rain = 0
KEN1 111835Z 04005KT 38/11 A3012 RMK A01 T03780111  RH  020%=      5-min Rain = 0
KEN1 111836Z 01003KT 38/11 A3012 RMK A01 T03760113  RH  021%=      5-min Rain = 0
KEN1 111837Z 33005KT 38/11 A3012 RMK A01 T03760111  RH  020%=      5-min Rain = 0
KEN1 111838Z 34005KT 38/11 A3011 RMK A01 T03760108  RH  020%=      5-min Rain = 0
KEN1 111839Z 35006KT 38/11 A3011 RMK A01 T03750107  RH  020%=      5-min Rain = 0
KEN1 111840Z 31006KT 38/11 A3011 RMK A01 T03750114  RH  021%=      5-min Rain = 0
KEN1 111841Z 33004KT 38/12 A3011 RMK A01 T03750115  RH  021%=      5-min Rain = 0
KEN1 111842Z 31002KT 38/11 A3011 RMK A01 T03750113  RH  021%=      5-min Rain = 0
KEN1 111843Z 23001KT 38/11 A3011 RMK A01 T03750112  RH  021%=      5-min Rain = 0
KEN1 111844Z 35001KT 37/11 A3011 RMK A01 T03740111  RH  021%=      5-min Rain = 0
KEN1 111845Z 00004KT 38/11 A3011 RMK A01 T03750114  RH  021%=      5-min Rain = 0
KEN1 111846Z 32004KT 38/12 A3011 RMK A01 T03770115  RH  021%=      5-min Rain = 0
KEN1 111847Z 33005KT 38/12 A3011 RMK A01 T03800116  RH  021%=      5-min Rain = 0
KEN1 111848Z 30004KT 38/11 A3011 RMK A01 T03810111  RH  020%=      5-min Rain = 0
KEN1 111849Z 31004KT 38/11 A3011 RMK A01 T03800113  RH  020%=      5-min Rain = 0
KEN1 111850Z 34006KT 38/11 A3011 RMK A01 T03820111  RH  020%=      5-min Rain = 0
KEN1 111851Z 32005KT 38/11 A3011 RMK A01 T03820113  RH  020%=      5-min Rain = 0
KEN1 111852Z 33002KT 38/11 A3011 RMK A01 T03800112  RH  020%=      5-min Rain = 0
KEN1 111853Z 02006KT 38/12 A3011 RMK A01 T03800118  RH  021%=      5-min Rain = 0
KEN1 111854Z 01006KT 38/12 A3011 RMK A01 T03790117  RH  021%=      5-min Rain = 0
KEN1 111855Z 01009KT 38/12 A3011 RMK A01 T03780118  RH  021%=      5-min Rain = 0
KEN1 111856Z 01007KT 38/12 A3011 RMK A01 T03780120  RH  021%=      5-min Rain = 0
KEN1 111857Z 00007KT 38/12 A3011 RMK A01 T03790118  RH  021%=      5-min Rain = 0
KEN1 111858Z 36008KT 38/12 A3011 RMK A01 T03780115  RH  021%=      5-min Rain = 0
KEN1 111859Z 35006KT 38/12 A3011 RMK A01 T03750115  RH  021%=      5-min Rain = 0
KEN1 111900Z 01005KT 38/12 A3011 RMK A01 T03750118  RH  021%=      5-min Rain = 0
KEN1 111901Z 03004KT 38/12 A3011 RMK A01 T03770116  RH  021%=      5-min Rain = 0
KEN1 111902Z 03004KT 38/12 A3011 RMK A01 T03770117  RH  021%=      5-min Rain = 0
KEN1 111903Z 04004KT 38/12 A3011 RMK A01 T03770116  RH  021%=      5-min Rain = 0
KEN1 111904Z 05003KT 38/12 A3011 RMK A01 T03770116  RH  021%=      5-min Rain = 0
KEN1 111905Z 06003KT 38/11 A3011 RMK A01 T03770114  RH  021%=      5-min Rain = 0
KEN1 111906Z 10002KT 38/11 A3011 RMK A01 T03760114  RH  021%=      5-min Rain = 0
KEN1 111907Z 20003KT 38/11 A3011 RMK A01 T03750113  RH  021%=      5-min Rain = 0
KEN1 111908Z 21004KT 38/11 A3011 RMK A01 T03750113  RH  021%=      5-min Rain = 0
KEN1 111909Z 21005KT 37/11 A3011 RMK A01 T03740114  RH  021%=      5-min Rain = 0
KEN1 111910Z 20005KT 38/11 A3011 RMK A01 T03750114  RH  021%=      5-min Rain = 0
KEN1 111911Z 20005KT 38/11 A3011 RMK A01 T03760112  RH  021%=      5-min Rain = 0
KEN1 111912Z 22005KT 38/12 A301 RMK A01 T03770115  RH  021%=      5-min Rain = 0
KEN1 111913Z 20004KT 38/11 A301 RMK A01 T03780111  RH  020%=      5-min Rain = 0
KEN1 111914Z 19004KT 38/11 A301 RMK A01 T03770113  RH  020%=      5-min Rain = 0
KEN1 111915Z 18006KT 38/11 A301 RMK A01 T03770112  RH  020%=      5-min Rain = 0
KEN1 111916Z 19004G9KT 38/11 A301 RMK A01 T03780114  RH  021%=      5-min Rain = 0
KEN1 111917Z 17005KT 38/11 A301 RMK A01 T03780113  RH  020%=      5-min Rain = 0
KEN1 111918Z 17003KT 38/11 A301 RMK A01 T03780113  RH  020%=      5-min Rain = 0
KEN1 111919Z 17006KT 38/11 A301 RMK A01 T03780113  RH  020%=      5-min Rain = 0
KEN1 111920Z 17005KT 38/11 A301 RMK A01 T03780114  RH  021%=      5-min Rain = 0
KEN1 111921Z 16006KT 38/11 A301 RMK A01 T03800114  RH  020%=      5-min Rain = 0
KEN1 111922Z 20006KT 38/12 A301 RMK A01 T03810116  RH  021%=      5-min Rain = 0
KEN1 111923Z 24004KT 38/12 A301 RMK A01 T03840119  RH  021%=      5-min Rain = 0
KEN1 111924Z 24004KT 39/11 A301 RMK A01 T03850114  RH  020%=      5-min Rain = 0
KEN1 111925Z 28003KT 38/11 A301 RMK A01 T03840110  RH  019%=      5-min Rain = 0
KEN1 111926Z 28002KT 38/11 A301 RMK A01 T03820111  RH  020%=      5-min Rain = 0
KEN1 111927Z 27003KT 38/12 A301 RMK A01 T03810117  RH  021%=      5-min Rain = 0
KEN1 111928Z 24004KT 39/12 A301 RMK A01 T03860119  RH  020%=      5-min Rain = 0
KEN1 111929Z 22005KT 39/11 A301 RMK A01 T03880114  RH  019%=      5-min Rain = 0
KEN1 111930Z 21005KT 39/12 A301 RMK A01 T03890119  RH  020%=      5-min Rain = 0
KEN1 111931Z 24001KT 39/11 A301 RMK A01 T03890110  RH  019%=      5-min Rain = 0
KEN1 111932Z 02001KT 39/11 A301 RMK A01 T03880110  RH  019%=      5-min Rain = 0
KEN1 111933Z 04004KT 39/11 A3009 RMK A01 T03880108  RH  019%=      5-min Rain = 0
KEN1 111934Z 03003KT 39/11 A3009 RMK A01 T03870105  RH  018%=      5-min Rain = 0
KEN1 111935Z 36001KT 39/11 A3009 RMK A01 T03850105  RH  019%=      5-min Rain = 0
KEN1 111936Z 01001KT 39/11 A3009 RMK A01 T03850109  RH  019%=      5-min Rain = 0
KEN1 111937Z 33002KT 39/11 A3009 RMK A01 T03870108  RH  019%=      5-min Rain = 0
KEN1 111938Z 33003KT 39/11 A3009 RMK A01 T03880108  RH  019%=      5-min Rain = 0
KEN1 111939Z 28003KT 39/11 A3009 RMK A01 T03890113  RH  019%=      5-min Rain = 0
KEN1 111940Z 33005KT 39/11 A3009 RMK A01 T03900112  RH  019%=      5-min Rain = 0
KEN1 111941Z 29008KT 39/11 A3009 RMK A01 T03920109  RH  018%=      5-min Rain = 0
KEN1 111942Z 29008KT 39/11 A3009 RMK A01 T03910108  RH  018%=      5-min Rain = 0
KEN1 111943Z 30006KT 39/11 A3009 RMK A01 T03880111  RH  019%=      5-min Rain = 0
KEN1 111944Z 27005KT 39/11 A3009 RMK A01 T03880105  RH  018%=      5-min Rain = 0
KEN1 111945Z 26004KT 39/10 A3009 RMK A01 T03860104  RH  018%=      5-min Rain = 0
KEN1 111946Z 25003KT 39/10 A3009 RMK A01 T03850104  RH  019%=      5-min Rain = 0
KEN1 111947Z 20002KT 39/10 A3009 RMK A01 T03850104  RH  019%=      5-min Rain = 0
KEN1 111948Z 20003KT 38/11 A3009 RMK A01 T03830106  RH  019%=      5-min Rain = 0
KEN1 111949Z 20002KT 38/10 A3009 RMK A01 T03820104  RH  019%=      5-min Rain = 0
KEN1 111950Z 11002KT 38/10 A3009 RMK A01 T03820104  RH  019%=      5-min Rain = 0
KEN1 111951Z 13002KT 38/10 A3009 RMK A01 T03820103  RH  019%=      5-min Rain = 0
KEN1 111952Z 18001KT 38/10 A3009 RMK A01 T03830102  RH  018%=      5-min Rain = 0
KEN1 111953Z 18000KT 38/11 A3009 RMK A01 T03840105  RH  019%=      5-min Rain = 0
KEN1 111954Z 10001KT 39/11 A3009 RMK A01 T03860110  RH  019%=      5-min Rain = 0
KEN1 111955Z 14001KT 39/12 A3009 RMK A01 T03900118  RH  020%=      5-min Rain = 0
KEN1 111956Z 36004KT 39/12 A3009 RMK A01 T03940115  RH  019%=      5-min Rain = 0
KEN1 111957Z 01004KT 40/12 A3009 RMK A01 T03950118  RH  019%=      5-min Rain = 0
KEN1 111958Z 03007KT 39/12 A3009 RMK A01 T03940115  RH  019%=      5-min Rain = 0
KEN1 111959Z 01007KT 39/12 A3009 RMK A01 T03920115  RH  019%=      5-min Rain = 0
KEN1 112000Z 02006KT 39/11 A3009 RMK A01 T03910113  RH  019%=      5-min Rain = 0
KEN1 112001Z 35005KT 39/11 A3009 RMK A01 T03910112  RH  019%=      5-min Rain = 0
KEN1 112002Z 34003KT 39/11 A3009 RMK A01 T03900111  RH  019%=      5-min Rain = 0
KEN1 112003Z 24001KT 39/11 A3009 RMK A01 T03890108  RH  019%=      5-min Rain = 0
KEN1 112004Z 21003KT 39/11 A3009 RMK A01 T03890108  RH  019%=      5-min Rain = 0
KEN1 112005Z 21001KT 39/11 A3009 RMK A01 T03880110  RH  019%=      5-min Rain = 0
KEN1 112006Z 09003KT 39/12 A3009 RMK A01 T03890115  RH  020%=      5-min Rain = 0
KEN1 112007Z 05007KT 39/12 A3009 RMK A01 T03930118  RH  019%=      5-min Rain = 0
KEN1 112008Z 03005KT 39/12 A3009 RMK A01 T03940119  RH  020%=      5-min Rain = 0
KEN1 112009Z 04007KT 39/12 A3009 RMK A01 T03940118  RH  019%=      5-min Rain = 0
KEN1 112010Z 02005KT 39/11 A3009 RMK A01 T03930114  RH  019%=      5-min Rain = 0
KEN1 112011Z 04005KT 39/11 A3009 RMK A01 T03910112  RH  019%=      5-min Rain = 0
KEN1 112012Z 03006KT 39/11 A3009 RMK A01 T03890112  RH  019%=      5-min Rain = 0
KEN1 112013Z 06005KT 39/11 A3009 RMK A01 T03880113  RH  019%=      5-min Rain = 0
KEN1 112014Z 03003KT 39/11 A3008 RMK A01 T03880114  RH  019%=      5-min Rain = 0
KEN1 112015Z 05005KT 39/12 A3008 RMK A01 T03920121  RH  020%=      5-min Rain = 0
KEN1 112016Z 05004KT 40/11 A3008 RMK A01 T03950110  RH  018%=      5-min Rain = 0
KEN1 112017Z 04004KT 39/11 A3008 RMK A01 T03930109  RH  018%=      5-min Rain = 0
KEN1 112018Z 01002KT 39/11 A3008 RMK A01 T03920111  RH  019%=      5-min Rain = 0
KEN1 112019Z 19002KT 39/11 A3008 RMK A01 T03910106  RH  018%=      5-min Rain = 0
KEN1 112020Z 36005KT 39/11 A3008 RMK A01 T03910114  RH  019%=      5-min Rain = 0
KEN1 112021Z 31004KT 39/11 A3008 RMK A01 T03920106  RH  018%=      5-min Rain = 0
KEN1 112022Z 32003KT 39/11 A3008 RMK A01 T03890106  RH  018%=      5-min Rain = 0
KEN1 112023Z 34004KT 39/11 A3008 RMK A01 T03890106  RH  018%=      5-min Rain = 0
KEN1 112024Z 33004KT 39/11 A3008 RMK A01 T03900109  RH  019%=      5-min Rain = 0
KEN1 112025Z 32004KT 39/11 A3008 RMK A01 T03910107  RH  018%=      5-min Rain = 0
KEN1 112026Z 32005KT 39/11 A3008 RMK A01 T03900107  RH  018%=      5-min Rain = 0
KEN1 112027Z 28005KT 39/11 A3008 RMK A01 T03900108  RH  019%=      5-min Rain = 0
KEN1 112028Z 27004KT 39/11 A3008 RMK A01 T03900105  RH  018%=      5-min Rain = 0
KEN1 112029Z 27002KT 39/11 A3008 RMK A01 T03900106  RH  018%=      5-min Rain = 0
KEN1 112030Z 07000KT 39/11 A3008 RMK A01 T03900107  RH  018%=      5-min Rain = 0
KEN1 112031Z 20001KT 39/11 A3008 RMK A01 T03920114  RH  019%=      5-min Rain = 0
KEN1 112032Z 15003KT 40/11 A3008 RMK A01 T03960113  RH  018%=      5-min Rain = 0
KEN1 112033Z 13004KT 40/10 A3008 RMK A01 T03980102  RH  017%=      5-min Rain = 0
KEN1 112034Z 14002KT 40/10 A3007 RMK A01 T03960101  RH  017%=      5-min Rain = 0
KEN1 112035Z 15002KT 39/10 A3007 RMK A01 T03940103  RH  017%=      5-min Rain = 0
KEN1 112036Z 18000KT 39/11 A3007 RMK A01 T03940106  RH  018%=      5-min Rain = 0
KEN1 112037Z 22001KT 40/11 A3007 RMK A01 T03950105  RH  018%=      5-min Rain = 0
KEN1 112038Z 10003KT 40/11 A3007 RMK A01 T03980112  RH  018%=      5-min Rain = 0
KEN1 112039Z 10005KT 40/11 A3007 RMK A01 T04000111  RH  018%=      5-min Rain = 0
KEN1 112040Z 13004KT 40/11 A3007 RMK A01 T04000109  RH  018%=      5-min Rain = 0
KEN1 112041Z 10005KT 40/11 A3007 RMK A01 T04000111  RH  018%=      5-min Rain = 0
KEN1 112042Z 07004KT 40/11 A3007 RMK A01 T03980110  RH  018%=      5-min Rain = 0
KEN1 112043Z 03008KT 40/12 A3007 RMK A01 T03960117  RH  019%=      5-min Rain = 0
KEN1 112044Z 05007KT 40/12 A3007 RMK A01 T03960115  RH  019%=      5-min Rain = 0
KEN1 112045Z 08006KT 40/11 A3007 RMK A01 T03960112  RH  018%=      5-min Rain = 0
KEN1 112046Z 08003KT 39/11 A3007 RMK A01 T03940111  RH  019%=      5-min Rain = 0
KEN1 112047Z 06006KT 39/12 A3007 RMK A01 T03940118  RH  019%=      5-min Rain = 0
KEN1 112048Z 08005KT 40/11 A3007 RMK A01 T03950113  RH  019%=      5-min Rain = 0
KEN1 112049Z 06005KT 40/11 A3007 RMK A01 T03950114  RH  019%=      5-min Rain = 0
KEN1 112050Z 03004KT 39/11 A3007 RMK A01 T03940111  RH  018%=      5-min Rain = 0
KEN1 112051Z 04003KT 39/11 A3007 RMK A01 T03940112  RH  019%=      5-min Rain = 0
KEN1 112052Z 02004KT 39/11 A3006 RMK A01 T03940113  RH  019%=      5-min Rain = 0
KEN1 112053Z 01006KT 40/11 A3006 RMK A01 T03950111  RH  018%=      5-min Rain = 0
KEN1 112054Z 02005KT 39/11 A3006 RMK A01 T03940111  RH  018%=      5-min Rain = 0
KEN1 112055Z 04002KT 39/11 A3006 RMK A01 T03930111  RH  019%=      5-min Rain = 0
KEN1 112056Z 06003KT 39/11 A3006 RMK A01 T03940113  RH  019%=      5-min Rain = 0
KEN1 112057Z 04003KT 40/11 A3006 RMK A01 T03950110  RH  018%=      5-min Rain = 0
KEN1 112058Z 03005KT 39/12 A3006 RMK A01 T03940116  RH  019%=      5-min Rain = 0
KEN1 112059Z 05006KT 40/12 A3006 RMK A01 T03960115  RH  019%=      5-min Rain = 0
KEN1 112100Z 03009KT 40/11 A3006 RMK A01 T03980112  RH  018%=      5-min Rain = 0
KEN1 112101Z 04005KT 40/11 A3006 RMK A01 T03980110  RH  018%=      5-min Rain = 0
KEN1 112102Z 03004G9KT 40/11 A3006 RMK A01 T03980105  RH  017%=      5-min Rain = 0
KEN1 112103Z 36009KT 40/11 A3006 RMK A01 T03980113  RH  018%=      5-min Rain = 0
KEN1 112104Z 35009KT 40/11 A3006 RMK A01 T03980110  RH  018%=      5-min Rain = 0
KEN1 112105Z 35007KT 40/11 A3006 RMK A01 T03970107  RH  018%=      5-min Rain = 0
KEN1 112106Z 34006KT 40/11 A3006 RMK A01 T03950110  RH  018%=      5-min Rain = 0
KEN1 112107Z 35004KT 39/11 A3006 RMK A01 T03940111  RH  019%=      5-min Rain = 0
KEN1 112108Z 30003KT 39/11 A3006 RMK A01 T03940112  RH  019%=      5-min Rain = 0
KEN1 112109Z 30000KT 40/12 A3006 RMK A01 T03950115  RH  019%=      5-min Rain = 0
KEN1 112110Z 01002KT 40/12 A3006 RMK A01 T03980116  RH  019%=      5-min Rain = 0
KEN1 112111Z 02008KT 40/12 A3006 RMK A01 T04000118  RH  019%=      5-min Rain = 0
KEN1 112112Z 01012KT 40/12 A3006 RMK A01 T04020118  RH  019%=      5-min Rain = 0
KEN1 112113Z 36009KT 40/11 A3006 RMK A01 T04010109  RH  018%=      5-min Rain = 0
KEN1 112114Z 01009KT 40/11 A3006 RMK A01 T03980112  RH  018%=      5-min Rain = 0
KEN1 112115Z 01009KT 40/12 A3006 RMK A01 T03980116  RH  019%=      5-min Rain = 0
KEN1 112116Z 01006KT 40/11 A3005 RMK A01 T04000110  RH  018%=      5-min Rain = 0
KEN1 112117Z 35007KT 40/11 A3005 RMK A01 T04000111  RH  018%=      5-min Rain = 0
KEN1 112118Z 01007KT 40/11 A3005 RMK A01 T03970110  RH  018%=      5-min Rain = 0
KEN1 112119Z 36006KT 40/11 A3005 RMK A01 T03970110  RH  018%=      5-min Rain = 0
KEN1 112120Z 34006KT 40/11 A3005 RMK A01 T03980112  RH  018%=      5-min Rain = 0
KEN1 112121Z 35004KT 40/11 A3005 RMK A01 T03990112  RH  018%=      5-min Rain = 0
KEN1 112122Z 02005KT 40/11 A3005 RMK A01 T04000113  RH  018%=      5-min Rain = 0
KEN1 112123Z 04006KT 40/11 A3005 RMK A01 T04010114  RH  018%=      5-min Rain = 0
KEN1 112124Z 04005KT 40/12 A3005 RMK A01 T04010115  RH  018%=      5-min Rain = 0
KEN1 112125Z 01007KT 40/11 A3005 RMK A01 T04000112  RH  018%=      5-min Rain = 0
KEN1 112126Z 04005G10KT 40/12 A3005 RMK A01 T03980116  RH  019%=      5-min Rain = 0
KEN1 112127Z 02007KT 40/12 A3005 RMK A01 T03980115  RH  019%=      5-min Rain = 0
KEN1 112128Z 07003KT 40/11 A3005 RMK A01 T03990110  RH  018%=      5-min Rain = 0
KEN1 112129Z 12002KT 40/11 A3005 RMK A01 T03970106  RH  018%=      5-min Rain = 0
KEN1 112130Z 21003KT 40/11 A3005 RMK A01 T03950105  RH  018%=      5-min Rain = 0
KEN1 112131Z 23004KT 39/11 A3005 RMK A01 T03930108  RH  018%=      5-min Rain = 0
KEN1 112132Z 19004KT 39/11 A3005 RMK A01 T03930110  RH  019%=      5-min Rain = 0
KEN1 112133Z 19004KT 39/11 A3005 RMK A01 T03930112  RH  019%=      5-min Rain = 0
KEN1 112134Z 19004KT 39/11 A3005 RMK A01 T03940113  RH  019%=      5-min Rain = 0
KEN1 112135Z 18004KT 40/11 A3005 RMK A01 T03960114  RH  019%=      5-min Rain = 0
KEN1 112136Z 19004KT 40/11 A3005 RMK A01 T03980112  RH  018%=      5-min Rain = 0
KEN1 112137Z 18003KT 40/11 A3005 RMK A01 T03980112  RH  018%=      5-min Rain = 0
KEN1 112138Z 21002KT 40/11 A3005 RMK A01 T03990111  RH  018%=      5-min Rain = 0
KEN1 112139Z 02005KT 40/11 A3005 RMK A01 T04000114  RH  018%=      5-min Rain = 0
KEN1 112140Z 02006KT 40/12 A3005 RMK A01 T04000117  RH  019%=      5-min Rain = 0
KEN1 112141Z 00008KT 40/12 A3005 RMK A01 T04010118  RH  019%=      5-min Rain = 0
KEN1 112142Z 01008KT 40/12 A3004 RMK A01 T04020119  RH  019%=      5-min Rain = 0
KEN1 112143Z 01007KT 40/12 A3004 RMK A01 T04030120  RH  019%=      5-min Rain = 0
KEN1 112144Z 01006KT 40/12 A3004 RMK A01 T04030116  RH  018%=      5-min Rain = 0
KEN1 112145Z 02008KT 40/12 A3004 RMK A01 T04020117  RH  018%=      5-min Rain = 0
KEN1 112146Z 03009KT 40/12 A3004 RMK A01 T04020118  RH  019%=      5-min Rain = 0
KEN1 112147Z 02007KT 40/12 A3004 RMK A01 T04020118  RH  019%=      5-min Rain = 0
KEN1 112148Z 02006KT 40/11 A3004 RMK A01 T04020113  RH  018%=      5-min Rain = 0
KEN1 112149Z 02006KT 40/12 A3004 RMK A01 T04000117  RH  019%=      5-min Rain = 0
KEN1 112150Z 02007KT 40/12 A3004 RMK A01 T04010121  RH  019%=      5-min Rain = 0
KEN1 112151Z 03008KT 40/12 A3004 RMK A01 T04040120  RH  019%=      5-min Rain = 0
KEN1 112152Z 04005KT 40/12 A3004 RMK A01 T04040117  RH  018%=      5-min Rain = 0
KEN1 112153Z 09002KT 40/11 A3004 RMK A01 T04000111  RH  018%=      5-min Rain = 0
KEN1 112154Z 06005KT 40/12 A3004 RMK A01 T03980116  RH  019%=      5-min Rain = 0
KEN1 112155Z 08002KT 40/11 A3004 RMK A01 T03980111  RH  018%=      5-min Rain = 0
KEN1 112156Z 06002G8KT 40/11 A3004 RMK A01 T03970113  RH  018%=      5-min Rain = 0
KEN1 112157Z 04005KT 40/12 A3004 RMK A01 T04000122  RH  019%=      5-min Rain = 0
KEN1 112158Z 05006KT 41/12 A3004 RMK A01 T04050120  RH  019%=      5-min Rain = 0
KEN1 112159Z 03005KT 41/12 A3004 RMK A01 T04050116  RH  018%=      5-min Rain = 0
KEN1 112200Z 05006KT 40/12 A3004 RMK A01 T04030117  RH  018%=      5-min Rain = 0
KEN1 112201Z 06007KT 40/12 A3004 RMK A01 T04030118  RH  018%=      5-min Rain = 0
KEN1 112202Z 08007KT 40/11 A3004 RMK A01 T04030113  RH  018%=      5-min Rain = 0
KEN1 112203Z 10009KT 40/12 A3004 RMK A01 T04020116  RH  018%=      5-min Rain = 0
KEN1 112204Z 10003KT 40/11 A3004 RMK A01 T04010114  RH  018%=      5-min Rain = 0
KEN1 112205Z 05005KT 40/12 A3004 RMK A01 T04000116  RH  019%=      5-min Rain = 0
KEN1 112206Z 08010KT 40/12 A3003 RMK A01 T04020121  RH  019%=      5-min Rain = 0
KEN1 112207Z 09008KT 40/12 A3004 RMK A01 T04030118  RH  018%=      5-min Rain = 0
KEN1 112208Z 10006KT 40/12 A3003 RMK A01 T04020117  RH  018%=      5-min Rain = 0
KEN1 112209Z 09006KT 40/12 A3003 RMK A01 T04000117  RH  019%=      5-min Rain = 0
KEN1 112210Z 09005KT 40/12 A3003 RMK A01 T04000119  RH  019%=      5-min Rain = 0
KEN1 112211Z 11004KT 40/12 A3003 RMK A01 T04000116  RH  019%=      5-min Rain = 0
KEN1 112212Z 12006KT 40/12 A3003 RMK A01 T04000118  RH  019%=      5-min Rain = 0
KEN1 112213Z 13005KT 40/11 A3003 RMK A01 T04020113  RH  018%=      5-min Rain = 0
KEN1 112214Z 12004KT 40/11 A3003 RMK A01 T04030112  RH  018%=      5-min Rain = 0
KEN1 112215Z 09005KT 40/12 A3003 RMK A01 T04030115  RH  018%=      5-min Rain = 0
KEN1 112216Z 03004KT 40/12 A3003 RMK A01 T04030120  RH  019%=      5-min Rain = 0
KEN1 112217Z 05005KT 40/12 A3003 RMK A01 T04030115  RH  018%=      5-min Rain = 0
KEN1 112218Z 08005KT 40/11 A3003 RMK A01 T04030111  RH  018%=      5-min Rain = 0
KEN1 112219Z 10005KT 40/11 A3003 RMK A01 T04030106  RH  017%=      5-min Rain = 0
KEN1 112220Z 11005KT 40/11 A3003 RMK A01 T04020106  RH  017%=      5-min Rain = 0
KEN1 112221Z 13004KT 40/11 A3003 RMK A01 T04010106  RH  017%=      5-min Rain = 0
KEN1 112222Z 14002KT 40/11 A3003 RMK A01 T04010107  RH  017%=      5-min Rain = 0
KEN1 112223Z 00000KT 40/11 A3003 RMK A01 T04010107  RH  017%=      5-min Rain = 0
KEN1 112224Z 13001KT 40/11 A3003 RMK A01 T04020110  RH  018%=      5-min Rain = 0
KEN1 112225Z 12005KT 41/11 A3003 RMK A01 T04050107  RH  017%=      5-min Rain = 0
KEN1 112226Z 09007KT 41/12 A3003 RMK A01 T04090118  RH  018%=      5-min Rain = 0
KEN1 112227Z 05005KT 41/12 A3003 RMK A01 T04110123  RH  018%=      5-min Rain = 0
KEN1 112228Z 04006KT 41/12 A3003 RMK A01 T04100121  RH  018%=      5-min Rain = 0
KEN1 112229Z 03006KT 41/12 A3002 RMK A01 T04070120  RH  018%=      5-min Rain = 0
KEN1 112230Z 03007KT 41/13 A3002 RMK A01 T04060125  RH  019%=      5-min Rain = 0
KEN1 112231Z 03005KT 41/12 A3002 RMK A01 T04070120  RH  018%=      5-min Rain = 0
KEN1 112232Z 03004KT 41/12 A3002 RMK A01 T04070117  RH  018%=      5-min Rain = 0
KEN1 112233Z 02007KT 41/12 A3002 RMK A01 T04060117  RH  018%=      5-min Rain = 0
KEN1 112234Z 01007KT 41/12 A3002 RMK A01 T04060116  RH  018%=      5-min Rain = 0
KEN1 112235Z 00006KT 41/11 A3002 RMK A01 T04060110  RH  017%=      5-min Rain = 0
KEN1 112236Z 00005KT 40/11 A3002 RMK A01 T04040108  RH  017%=      5-min Rain = 0
KEN1 112237Z 03005KT 40/11 A3002 RMK A01 T04040111  RH  018%=      5-min Rain = 0
KEN1 112238Z 07007KT 40/12 A3002 RMK A01 T04040118  RH  018%=      5-min Rain = 0
KEN1 112239Z 05009KT 40/12 A3002 RMK A01 T04040117  RH  018%=      5-min Rain = 0
KEN1 112240Z 08009KT 40/12 A3002 RMK A01 T04040119  RH  019%=      5-min Rain = 0
KEN1 112241Z 09008KT 40/12 A3002 RMK A01 T04020116  RH  018%=      5-min Rain = 0
KEN1 112242Z 08007KT 40/12 A3001 RMK A01 T04010116  RH  018%=      5-min Rain = 0
KEN1 112243Z 07006KT 40/12 A3001 RMK A01 T04010115  RH  018%=      5-min Rain = 0
KEN1 112244Z 11006KT 40/12 A3001 RMK A01 T04000115  RH  018%=      5-min Rain = 0
KEN1 112245Z 13005KT 40/11 A3001 RMK A01 T04000113  RH  018%=      5-min Rain = 0
KEN1 112246Z 15005KT 40/11 A3001 RMK A01 T04000113  RH  018%=      5-min Rain = 0
KEN1 112247Z 14005KT 40/12 A3001 RMK A01 T04020115  RH  018%=      5-min Rain = 0
KEN1 112248Z 08003KT 40/12 A3001 RMK A01 T04040119  RH  018%=      5-min Rain = 0
KEN1 112249Z 01006KT 41/12 A3001 RMK A01 T04070117  RH  018%=      5-min Rain = 0
KEN1 112250Z 03007KT 41/12 A3001 RMK A01 T04060117  RH  018%=      5-min Rain = 0
KEN1 112251Z 02008KT 41/12 A3001 RMK A01 T04060115  RH  018%=      5-min Rain = 0
KEN1 112252Z 03005KT 41/11 A3001 RMK A01 T04050112  RH  017%=      5-min Rain = 0
KEN1 112253Z 04005KT 41/11 A3001 RMK A01 T04050114  RH  018%=      5-min Rain = 0
KEN1 112254Z 04003KT 41/12 A3001 RMK A01 T04050116  RH  018%=      5-min Rain = 0
KEN1 112255Z 07003KT 41/12 A30 RMK A01 T04060118  RH  018%=      5-min Rain = 0
KEN1 112256Z 08002KT 41/12 A30 RMK A01 T04070115  RH  018%=      5-min Rain = 0
KEN1 112257Z 04004KT 41/12 A30 RMK A01 T04060117  RH  018%=      5-min Rain = 0
KEN1 112258Z 06005KT 41/12 A30 RMK A01 T04060117  RH  018%=      5-min Rain = 0
KEN1 112259Z 11006KT 41/11 A30 RMK A01 T04080113  RH  017%=      5-min Rain = 0
KEN1 112300Z 14006KT 41/10 A30 RMK A01 T04100104  RH  016%=      5-min Rain = 0
KEN1 112301Z 08006KT 41/11 A30 RMK A01 T04060107  RH  017%=      5-min Rain = 0
KEN1 112302Z 07005KT 41/12 A30 RMK A01 T04050115  RH  018%=      5-min Rain = 0
KEN1 112303Z 08004KT 41/12 A30 RMK A01 T04060116  RH  018%=      5-min Rain = 0
KEN1 112304Z 11004KT 41/11 A30 RMK A01 T04070112  RH  017%=      5-min Rain = 0
KEN1 112305Z 09002KT 41/10 A30 RMK A01 T04080104  RH  016%=      5-min Rain = 0
KEN1 112306Z 07003KT 41/11 A30 RMK A01 T04060106  RH  017%=      5-min Rain = 0
KEN1 112307Z 07005KT 41/11 A30 RMK A01 T04060108  RH  017%=      5-min Rain = 0
KEN1 112308Z 06006KT 41/11 A30 RMK A01 T04060105  RH  017%=      5-min Rain = 0
KEN1 112309Z 06005KT 41/10 A30 RMK A01 T04050103  RH  017%=      5-min Rain = 0
KEN1 112310Z 07005KT 40/10 A30 RMK A01 T04040104  RH  017%=      5-min Rain = 0
KEN1 112311Z 08005KT 40/10 A30 RMK A01 T04040102  RH  017%=      5-min Rain = 0
KEN1 112312Z 10005KT 40/10 A30 RMK A01 T04040101  RH  016%=      5-min Rain = 0
KEN1 112313Z 09005KT 40/10 A30 RMK A01 T04030099  RH  016%=      5-min Rain = 0
KEN1 112314Z 06003KT 40/10 A30 RMK A01 T04030100  RH  016%=      5-min Rain = 0
KEN1 112315Z 06006KT 40/11 A30 RMK A01 T04030105  RH  017%=      5-min Rain = 0
KEN1 112316Z 07006KT 40/10 A30 RMK A01 T04040101  RH  016%=      5-min Rain = 0
KEN1 112317Z 07007KT 40/10 A30 RMK A01 T04040099  RH  016%=      5-min Rain = 0
KEN1 112318Z 08007KT 40/10 A30 RMK A01 T04030100  RH  016%=      5-min Rain = 0
KEN1 112319Z 08005KT 40/10 A30 RMK A01 T04030098  RH  016%=      5-min Rain = 0
KEN1 112320Z 08004KT 40/10 A30 RMK A01 T04020098  RH  016%=      5-min Rain = 0
KEN1 112321Z 08004KT 40/10 A30 RMK A01 T04010097  RH  016%=      5-min Rain = 0
KEN1 112322Z 08004KT 40/10 A30 RMK A01 T04010098  RH  016%=      5-min Rain = 0
KEN1 112323Z 14002KT 40/09 A30 RMK A01 T04010092  RH  016%=      5-min Rain = 0
KEN1 112324Z 21003KT 40/09 A30 RMK A01 T04010094  RH  016%=      5-min Rain = 0
KEN1 112325Z 02001KT 40/10 A30 RMK A01 T04000100  RH  017%=      5-min Rain = 0
KEN1 112326Z 01002KT 40/10 A30 RMK A01 T04010099  RH  016%=      5-min Rain = 0
KEN1 112327Z 36003KT 40/10 A30 RMK A01 T04030100  RH  016%=      5-min Rain = 0
KEN1 112328Z 31003KT 41/10 A30 RMK A01 T04050104  RH  017%=      5-min Rain = 0
KEN1 112329Z 33003KT 41/10 A30 RMK A01 T04080101  RH  016%=      5-min Rain = 0
KEN1 112330Z 34003KT 41/10 A30 RMK A01 T04090096  RH  015%=      5-min Rain = 0
KEN1 112331Z 32003KT 41/10 A30 RMK A01 T04090096  RH  015%=      5-min Rain = 0
KEN1 112332Z 32001KT 41/10 A30 RMK A01 T04090099  RH  016%=      5-min Rain = 0
KEN1 112333Z 33004KT 41/10 A30 RMK A01 T04100101  RH  016%=      5-min Rain = 0
KEN1 112334Z 33005KT 41/10 A30 RMK A01 T04120101  RH  016%=      5-min Rain = 0
KEN1 112335Z 32004KT 41/10 A30 RMK A01 T04120099  RH  015%=      5-min Rain = 0
KEN1 112336Z 33004KT 41/09 A3001 RMK A01 T04100094  RH  015%=      5-min Rain = 0
KEN1 112337Z 34003KT 41/10 A3001 RMK A01 T04080095  RH  015%=      5-min Rain = 0
KEN1 112338Z 31002KT 41/09 A3001 RMK A01 T04070093  RH  015%=      5-min Rain = 0
KEN1 112339Z 32005KT 41/10 A30 RMK A01 T04070096  RH  016%=      5-min Rain = 0
KEN1 112340Z 33006KT 41/10 A3001 RMK A01 T04070097  RH  016%=      5-min Rain = 0
KEN1 112341Z 32006KT 41/10 A3001 RMK A01 T04080096  RH  016%=      5-min Rain = 0
KEN1 112342Z 32004KT 41/10 A3001 RMK A01 T04070097  RH  016%=      5-min Rain = 0
KEN1 112343Z 31003KT 41/10 A3001 RMK A01 T04070098  RH  016%=      5-min Rain = 0
KEN1 112344Z 28002KT 41/10 A3001 RMK A01 T04060099  RH  016%=      5-min Rain = 0
KEN1 112345Z 02003KT 41/10 A3001 RMK A01 T04070102  RH  016%=      5-min Rain = 0
KEN1 112346Z 04008KT 41/11 A3001 RMK A01 T04080109  RH  017%=      5-min Rain = 0
KEN1 112347Z 04009KT 41/11 A3001 RMK A01 T04070112  RH  017%=      5-min Rain = 0
KEN1 112348Z 03008KT 41/11 A3001 RMK A01 T04050112  RH  018%=      5-min Rain = 0
KEN1 112349Z 02008KT 40/11 A3001 RMK A01 T04040109  RH  017%=      5-min Rain = 0
KEN1 112350Z 36008KT 40/11 A3001 RMK A01 T04040108  RH  017%=      5-min Rain = 0
KEN1 112351Z 36008KT 40/11 A3001 RMK A01 T04040108  RH  017%=      5-min Rain = 0
KEN1 112352Z 02007KT 41/11 A3001 RMK A01 T04050108  RH  017%=      5-min Rain = 0
KEN1 112353Z 02006KT 40/11 A3001 RMK A01 T04030108  RH  017%=      5-min Rain = 0
KEN1 112354Z 01006KT 40/11 A3001 RMK A01 T04020109  RH  017%=      5-min Rain = 0
KEN1 112355Z 00008KT 40/11 A3001 RMK A01 T04020113  RH  018%=      5-min Rain = 0
KEN1 112356Z 01009KT 40/11 A3001 RMK A01 T04030113  RH  018%=      5-min Rain = 0
KEN1 112357Z 01008KT 40/12 A3001 RMK A01 T04030122  RH  019%=      5-min Rain = 0
KEN1 112358Z 03010KT 40/12 A3001 RMK A01 T04040122  RH  019%=      5-min Rain = 0
KEN1 112359Z 03009KT 40/12 A3001 RMK A01 T04040117  RH  018%=      5-min Rain = 0
KEN1 120000Z 03010KT 40/12 A3001 RMK A01 T04040116  RH  018%=      5-min Rain = 0
KEN1 120001Z 04008KT 40/12 A3001 RMK A01 T04030117  RH  018%=      5-min Rain = 0
KEN1 120002Z 02008KT 40/12 A3001 RMK A01 T04020115  RH  018%=      5-min Rain = 0
KEN1 120003Z 04008KT 40/11 A3001 RMK A01 T04010114  RH  018%=      5-min Rain = 0
KEN1 120004Z 03009KT 40/12 A3001 RMK A01 T04010115  RH  018%=      5-min Rain = 0
KEN1 120005Z 03008KT 40/12 A3001 RMK A01 T03990118  RH  019%=      5-min Rain = 0
KEN1 120006Z 03009KT 40/12 A3001 RMK A01 T04000116  RH  019%=      5-min Rain = 0
KEN1 120007Z 03010KT 40/12 A30 RMK A01 T03980119  RH  019%=      5-min Rain = 0
KEN1 120008Z 01009KT 40/12 A3001 RMK A01 T03960118  RH  019%=      5-min Rain = 0
KEN1 120009Z 00011KT 39/12 A3001 RMK A01 T03930118  RH  019%=      5-min Rain = 0
KEN1 120010Z 00012KT 39/12 A3001 RMK A01 T03900116  RH  019%=      5-min Rain = 0
KEN1 120011Z 00010KT 39/11 A3001 RMK A01 T03890113  RH  019%=      5-min Rain = 0
KEN1 120012Z 01011KT 39/12 A3001 RMK A01 T03890115  RH  019%=      5-min Rain = 0
KEN1 120013Z 01009KT 39/12 A3001 RMK A01 T03880115  RH  020%=      5-min Rain = 0
KEN1 120014Z 02010KT 39/12 A3001 RMK A01 T03870116  RH  020%=      5-min Rain = 0
KEN1 120015Z 04011KT 39/12 A3001 RMK A01 T03850116  RH  020%=      5-min Rain = 0
KEN1 120016Z 03008KT 38/12 A3001 RMK A01 T03840117  RH  020%=      5-min Rain = 0
KEN1 120017Z 03012KT 38/12 A3001 RMK A01 T03820116  RH  020%=      5-min Rain = 0
KEN1 120018Z 03012KT 38/12 A3001 RMK A01 T03820117  RH  021%=      5-min Rain = 0
KEN1 120019Z 02012KT 38/12 A3001 RMK A01 T03810119  RH  021%=      5-min Rain = 0
KEN1 120020Z 02011KT 38/12 A3001 RMK A01 T03800119  RH  021%=      5-min Rain = 0
KEN1 120021Z 03011KT 38/12 A3001 RMK A01 T03790119  RH  021%=      5-min Rain = 0
KEN1 120022Z 03011KT 38/12 A3001 RMK A01 T03780119  RH  021%=      5-min Rain = 0
KEN1 120023Z 03010KT 38/12 A3001 RMK A01 T03780119  RH  021%=      5-min Rain = 0
KEN1 120024Z 03010KT 38/12 A3001 RMK A01 T03770119  RH  021%=      5-min Rain = 0
KEN1 120025Z 03011KT 38/12 A3001 RMK A01 T03770118  RH  021%=      5-min Rain = 0
KEN1 120026Z 03011KT 38/12 A3001 RMK A01 T03770117  RH  021%=      5-min Rain = 0
KEN1 120027Z 02011KT 38/11 A3001 RMK A01 T03770114  RH  021%=      5-min Rain = 0
KEN1 120028Z 02010KT 38/12 A3001 RMK A01 T03770116  RH  021%=      5-min Rain = 0
KEN1 120029Z 01010KT 38/12 A3001 RMK A01 T03770116  RH  021%=      5-min Rain = 0
KEN1 120030Z 02011KT 38/12 A3001 RMK A01 T03770116  RH  021%=      5-min Rain = 0
KEN1 120031Z 02011KT 38/12 A3001 RMK A01 T03770116  RH  021%=      5-min Rain = 0
KEN1 120032Z 02010KT 38/12 A3001 RMK A01 T03770117  RH  021%=      5-min Rain = 0
KEN1 120033Z 03009KT 38/12 A3001 RMK A01 T03760117  RH  021%=      5-min Rain = 0
KEN1 120034Z 03010KT 38/12 A3001 RMK A01 T03750117  RH  021%=      5-min Rain = 0
KEN1 120035Z 03009KT 38/12 A3001 RMK A01 T03750116  RH  021%=      5-min Rain = 0
KEN1 120036Z 02009KT 37/12 A3001 RMK A01 T03740117  RH  021%=      5-min Rain = 0
KEN1 120037Z 01009KT 37/12 A3001 RMK A01 T03740118  RH  022%=      5-min Rain = 0
KEN1 120038Z 01011KT 37/12 A3001 RMK A01 T03730118  RH  022%=      5-min Rain = 0
KEN1 120039Z 01012KT 37/12 A3001 RMK A01 T03730123  RH  022%=      5-min Rain = 0
KEN1 120040Z 01012KT 37/13 A3001 RMK A01 T03730131  RH  024%=      5-min Rain = 0
KEN1 120041Z 01011KT 37/14 A3001 RMK A01 T03720135  RH  024%=      5-min Rain = 0
KEN1 120042Z 02013KT 37/14 A3001 RMK A01 T03710136  RH  025%=      5-min Rain = 0
KEN1 120043Z 02014KT 37/14 A3001 RMK A01 T03720136  RH  025%=      5-min Rain = 0
KEN1 120044Z 02015KT 37/14 A3001 RMK A01 T03720137  RH  025%=      5-min Rain = 0
KEN1 120045Z 02014KT 37/14 A3001 RMK A01 T03720138  RH  025%=      5-min Rain = 0
KEN1 120046Z 02013KT 37/14 A3001 RMK A01 T03720138  RH  025%=      5-min Rain = 0
KEN1 120047Z 02013KT 37/14 A3001 RMK A01 T03710138  RH  025%=      5-min Rain = 0
KEN1 120048Z 02014KT 37/14 A3001 RMK A01 T03710138  RH  025%=      5-min Rain = 0
KEN1 120049Z 02014KT 37/14 A3001 RMK A01 T03700138  RH  025%=      5-min Rain = 0
KEN1 120050Z 02013KT 37/14 A3001 RMK A01 T03700138  RH  025%=      5-min Rain = 0
KEN1 120051Z 02013KT 37/14 A3001 RMK A01 T03700139  RH  025%=      5-min Rain = 0
KEN1 120052Z 02013KT 37/14 A3001 RMK A01 T03690140  RH  026%=      5-min Rain = 0
KEN1 120053Z 03013KT 37/14 A3001 RMK A01 T03690141  RH  026%=      5-min Rain = 0
KEN1 120054Z 03014KT 37/14 A3001 RMK A01 T03680142  RH  026%=      5-min Rain = 0
KEN1 120055Z 03014KT 37/14 A3001 RMK A01 T03660143  RH  026%=      5-min Rain = 0
KEN1 120056Z 03017KT 37/14 A3001 RMK A01 T03660143  RH  026%=      5-min Rain = 0
KEN1 120057Z 03013KT 37/14 A3001 RMK A01 T03660143  RH  026%=      5-min Rain = 0
KEN1 120058Z 02014KT 37/14 A3001 RMK A01 T03660143  RH  027%=      5-min Rain = 0
KEN1 120059Z 02013KT 37/14 A3001 RMK A01 T03660143  RH  027%=      5-min Rain = 0
KEN1 120100Z 02013KT 37/14 A3001 RMK A01 T03650143  RH  027%=      5-min Rain = 0
KEN1 120101Z 02013KT 37/14 A3001 RMK A01 T03650142  RH  027%=      5-min Rain = 0
KEN1 120102Z 01011KT 37/14 A3001 RMK A01 T03650143  RH  027%=      5-min Rain = 0
KEN1 120103Z 02010KT 36/14 A3001 RMK A01 T03640144  RH  027%=      5-min Rain = 0
KEN1 120104Z 02011KT 36/15 A3001 RMK A01 T03630145  RH  027%=      5-min Rain = 0
KEN1 120105Z 02012KT 36/14 A3001 RMK A01 T03620144  RH  027%=      5-min Rain = 0
KEN1 120106Z 02012KT 36/14 A3001 RMK A01 T03620144  RH  027%=      5-min Rain = 0
KEN1 120107Z 02012KT 36/14 A3001 RMK A01 T03620144  RH  027%=      5-min Rain = 0
KEN1 120108Z 02013KT 36/15 A3001 RMK A01 T03620145  RH  027%=      5-min Rain = 0
KEN1 120109Z 02015KT 36/14 A3001 RMK A01 T03620144  RH  027%=      5-min Rain = 0
KEN1 120110Z 02017KT 36/14 A3001 RMK A01 T03620144  RH  027%=      5-min Rain = 0
KEN1 120111Z 01017KT 36/14 A3001 RMK A01 T03630143  RH  027%=      5-min Rain = 0
KEN1 120112Z 01016KT 36/14 A3001 RMK A01 T03630143  RH  027%=      5-min Rain = 0
KEN1 120113Z 02016KT 36/14 A3001 RMK A01 T03630142  RH  027%=      5-min Rain = 0
KEN1 120114Z 01015KT 36/14 A3001 RMK A01 T03630142  RH  027%=      5-min Rain = 0
KEN1 120115Z 02015KT 36/14 A3001 RMK A01 T03630142  RH  027%=      5-min Rain = 0
KEN1 120116Z 01016KT 36/14 A3001 RMK A01 T03630142  RH  027%=      5-min Rain = 0
KEN1 120117Z 02015KT 36/14 A3001 RMK A01 T03630142  RH  027%=      5-min Rain = 0
KEN1 120118Z 01014KT 36/14 A3001 RMK A01 T03630142  RH  027%=      5-min Rain = 0
KEN1 120119Z 01013KT 36/14 A3002 RMK A01 T03620142  RH  027%=      5-min Rain = 0
KEN1 120120Z 01014KT 36/14 A3002 RMK A01 T03610142  RH  027%=      5-min Rain = 0
KEN1 120121Z 01016KT 36/14 A3002 RMK A01 T03610142  RH  027%=      5-min Rain = 0
KEN1 120122Z 02015KT 36/14 A3002 RMK A01 T03610141  RH  027%=      5-min Rain = 0
KEN1 120123Z 01017KT 36/14 A3002 RMK A01 T03600141  RH  027%=      5-min Rain = 0
KEN1 120124Z 01016KT 36/14 A3002 RMK A01 T03610142  RH  027%=      5-min Rain = 0
KEN1 120125Z 01016KT 36/14 A3002 RMK A01 T03620143  RH  027%=      5-min Rain = 0
KEN1 120126Z 01016KT 36/14 A3002 RMK A01 T03610144  RH  027%=      5-min Rain = 0
KEN1 120127Z 00018KT 36/14 A3003 RMK A01 T03610144  RH  027%=      5-min Rain = 0
KEN1 120128Z 01016KT 36/14 A3003 RMK A01 T03610144  RH  028%=      5-min Rain = 0
KEN1 120129Z 01014KT 36/15 A3003 RMK A01 T03600145  RH  028%=      5-min Rain = 0
KEN1 120130Z 01017KT 36/15 A3003 RMK A01 T03590145  RH  028%=      5-min Rain = 0
KEN1 120131Z 01016KT 36/15 A3003 RMK A01 T03590145  RH  028%=      5-min Rain = 0
KEN1 120132Z 01016KT 36/15 A3003 RMK A01 T03590145  RH  028%=      5-min Rain = 0
KEN1 120133Z 00017KT 36/15 A3003 RMK A01 T03590146  RH  028%=      5-min Rain = 0
KEN1 120134Z 01017G22KT 36/15 A3003 RMK A01 T03590146  RH  028%=      5-min Rain = 0
KEN1 120135Z 01020G25KT 36/15 A3003 RMK A01 T03590146  RH  028%=      5-min Rain = 0
KEN1 120136Z 01019KT 36/15 A3003 RMK A01 T03590147  RH  028%=      5-min Rain = 0
KEN1 120137Z 01018KT 36/15 A3003 RMK A01 T03580147  RH  028%=      5-min Rain = 0
KEN1 120138Z 01019G24KT 36/15 A3003 RMK A01 T03580147  RH  029%=      5-min Rain = 0
KEN1 120139Z 01020KT 36/15 A3003 RMK A01 T03570147  RH  029%=      5-min Rain = 0
KEN1 120140Z 01019KT 36/15 A3003 RMK A01 T03570147  RH  029%=      5-min Rain = 0
KEN1 120141Z 01019KT 36/15 A3003 RMK A01 T03570148  RH  029%=      5-min Rain = 0
KEN1 120142Z 01016KT 36/15 A3003 RMK A01 T03570148  RH  029%=      5-min Rain = 0
KEN1 120143Z 01018G23KT 36/15 A3003 RMK A01 T03570148  RH  029%=      5-min Rain = 0
KEN1 120144Z 01017KT 36/15 A3003 RMK A01 T03570148  RH  029%=      5-min Rain = 0
KEN1 120145Z 01017KT 36/15 A3003 RMK A01 T03560148  RH  029%=      5-min Rain = 0
KEN1 120146Z 01017KT 36/15 A3003 RMK A01 T03560148  RH  029%=      5-min Rain = 0
KEN1 120147Z 01022KT 36/15 A3004 RMK A01 T03550148  RH  029%=      5-min Rain = 0
KEN1 120148Z 01019G24KT 36/15 A3004 RMK A01 T03550148  RH  029%=      5-min Rain = 0
KEN1 120149Z 01019KT 36/15 A3004 RMK A01 T03560148  RH  029%=      5-min Rain = 0
KEN1 120150Z 01019G25KT 36/15 A3004 RMK A01 T03560149  RH  029%=      5-min Rain = 0
KEN1 120151Z 01018KT 36/15 A3004 RMK A01 T03560149  RH  029%=      5-min Rain = 0
KEN1 120152Z 01016KT 36/15 A3005 RMK A01 T03550150  RH  029%=      5-min Rain = 0
KEN1 120153Z 35017KT 35/15 A3005 RMK A01 T03540150  RH  030%=      5-min Rain = 0
KEN1 120154Z 35024G30KT 35/14 A3005 RMK A01 T03540142  RH  028%=      5-min Rain = 0
KEN1 120155Z 00028G35KT 35/13 A3005 RMK A01 T03510134  RH  027%=      5-min Rain = 0
KEN1 120156Z 00027G35KT 35/12 A3006 RMK A01 T03460121  RH  026%=      5-min Rain = 0
KEN1 120157Z 01028KT 34/12 A3006 RMK A01 T03420115  RH  025%=      5-min Rain = 0
KEN1 120158Z 00027KT 34/11 A3006 RMK A01 T03390114  RH  025%=      5-min Rain = 0
KEN1 120159Z 00027KT 34/11 A3006 RMK A01 T03370109  RH  025%=      5-min Rain = 0
KEN1 120200Z 00027KT 34/10 A3006 RMK A01 T03350104  RH  024%=      5-min Rain = 0
KEN1 120201Z 36025KT 33/10 A3006 RMK A01 T03330103  RH  024%=      5-min Rain = 0
KEN1 120202Z 00024KT 33/10 A3007 RMK A01 T03320100  RH  024%=      5-min Rain = 0
KEN1 120203Z 00024G31KT 33/10 A3007 RMK A01 T03300098  RH  024%=      5-min Rain = 0
KEN1 120204Z 01027G32KT 33/10 A3007 RMK A01 T03300097  RH  024%=      5-min Rain = 0
KEN1 120205Z 01027KT 33/10 A3006 RMK A01 T03290096  RH  024%=      5-min Rain = 0
KEN1 120206Z 01022G28KT 33/10 A3006 RMK A01 T03290096  RH  024%=      5-min Rain = 0
KEN1 120207Z 01019KT 33/10 A3007 RMK A01 T03280096  RH  024%=      5-min Rain = 0
KEN1 120208Z 00020KT 33/10 A3007 RMK A01 T03270096  RH  024%=      5-min Rain = 0
KEN1 120209Z 36019KT 33/10 A3007 RMK A01 T03260096  RH  024%=      5-min Rain = 0
KEN1 120210Z 00021G27KT 33/10 A3007 RMK A01 T03260096  RH  024%=      5-min Rain = 0
KEN1 120211Z 00020KT 33/10 A3007 RMK A01 T03260095  RH  024%=      5-min Rain = 0
KEN1 120212Z 01018KT 33/10 A3007 RMK A01 T03250095  RH  024%=      5-min Rain = 0
KEN1 120213Z 01017KT 33/10 A3007 RMK A01 T03250095  RH  024%=      5-min Rain = 0
KEN1 120214Z 00017KT 32/09 A3007 RMK A01 T03240094  RH  024%=      5-min Rain = 0
KEN1 120215Z 36017G22KT 32/09 A3008 RMK A01 T03240094  RH  024%=      5-min Rain = 0
KEN1 120216Z 00020KT 32/09 A3008 RMK A01 T03240093  RH  024%=      5-min Rain = 0
KEN1 120217Z 01017G23KT 33/09 A3008 RMK A01 T03250092  RH  024%=      5-min Rain = 0
KEN1 120218Z 01016KT 33/09 A3008 RMK A01 T03250093  RH  024%=      5-min Rain = 0
KEN1 120219Z 02017KT 32/09 A3008 RMK A01 T03240093  RH  024%=      5-min Rain = 0
KEN1 120220Z 01013KT 32/09 A3008 RMK A01 T03230093  RH  024%=      5-min Rain = 0
KEN1 120221Z 01014KT 32/09 A3008 RMK A01 T03220093  RH  024%=      5-min Rain = 0
KEN1 120222Z 00016KT 32/09 A3007 RMK A01 T03220093  RH  024%=      5-min Rain = 0
KEN1 120223Z 01015KT 32/09 A3007 RMK A01 T03220093  RH  024%=      5-min Rain = 0
KEN1 120224Z 01016G22KT 32/09 A3008 RMK A01 T03220092  RH  024%=      5-min Rain = 0
KEN1 120225Z 01016G21KT 32/09 A3007 RMK A01 T03220092  RH  024%=      5-min Rain = 0
KEN1 120226Z 01015KT 32/09 A3007 RMK A01 T03220092  RH  024%=      5-min Rain = 0
KEN1 120227Z 01016KT 32/09 A3007 RMK A01 T03220091  RH  024%=      5-min Rain = 0
KEN1 120228Z 00016KT 32/09 A3007 RMK A01 T03230091  RH  024%=      5-min Rain = 0
KEN1 120229Z 00016G21KT 32/09 A3007 RMK A01 T03230091  RH  024%=      5-min Rain = 0
KEN1 120230Z 01014KT 32/09 A3007 RMK A01 T03230091  RH  024%=      5-min Rain = 0
KEN1 120231Z 01019KT 32/09 A3007 RMK A01 T03230089  RH  024%=      5-min Rain = 0
KEN1 120232Z 01015KT 32/09 A3007 RMK A01 T03230089  RH  023%=      5-min Rain = 0
KEN1 120233Z 01015KT 32/09 A3007 RMK A01 T03230089  RH  024%=      5-min Rain = 0
KEN1 120234Z 01016KT 32/09 A3007 RMK A01 T03230089  RH  024%=      5-min Rain = 0
KEN1 120235Z 00015KT 32/09 A3007 RMK A01 T03230088  RH  023%=      5-min Rain = 0
KEN1 120236Z 01015KT 32/09 A3007 RMK A01 T03230088  RH  023%=      5-min Rain = 0
KEN1 120237Z 01014KT 32/09 A3007 RMK A01 T03230088  RH  023%=      5-min Rain = 0
KEN1 120238Z 01015KT 32/09 A3007 RMK A01 T03230087  RH  023%=      5-min Rain = 0
KEN1 120239Z 01013KT 32/09 A3008 RMK A01 T03240087  RH  023%=      5-min Rain = 0
KEN1 120240Z 01015KT 32/09 A3008 RMK A01 T03240087  RH  023%=      5-min Rain = 0
KEN1 120241Z 01015KT 32/09 A3008 RMK A01 T03240086  RH  023%=      5-min Rain = 0
KEN1 120242Z 01015KT 32/09 A3008 RMK A01 T03240087  RH  023%=      5-min Rain = 0
KEN1 120243Z 02012KT 32/09 A3008 RMK A01 T03240087  RH  023%=      5-min Rain = 0
KEN1 120244Z 02011KT 32/09 A3008 RMK A01 T03230088  RH  023%=      5-min Rain = 0
KEN1 120245Z 01011KT 32/09 A3008 RMK A01 T03230088  RH  023%=      5-min Rain = 0
KEN1 120246Z 01009KT 32/09 A3009 RMK A01 T03220088  RH  023%=      5-min Rain = 0
KEN1 120247Z 00007KT 32/09 A3009 RMK A01 T03220088  RH  024%=      5-min Rain = 0
KEN1 120248Z 35005KT 32/09 A3009 RMK A01 T03220089  RH  024%=      5-min Rain = 0
KEN1 120249Z 33005KT 32/09 A301 RMK A01 T03220089  RH  024%=      5-min Rain = 0
KEN1 120250Z 32005KT 32/09 A301 RMK A01 T03220088  RH  024%=      5-min Rain = 0
KEN1 120251Z 29006KT 32/09 A301 RMK A01 T03220089  RH  024%=      5-min Rain = 0
KEN1 120252Z 27008KT 32/09 A3011 RMK A01 T03230090  RH  024%=      5-min Rain = 0
KEN1 120253Z 26010KT 32/09 A3011 RMK A01 T03230092  RH  024%=      5-min Rain = 0
KEN1 120254Z 25010KT 32/09 A3011 RMK A01 T03220092  RH  024%=      5-min Rain = 0
KEN1 120255Z 25011KT 32/09 A3011 RMK A01 T03220090  RH  024%=      5-min Rain = 0
KEN1 120256Z 25010KT 32/09 A3011 RMK A01 T03230090  RH  024%=      5-min Rain = 0
KEN1 120257Z 25009KT 32/09 A3011 RMK A01 T03240092  RH  024%=      5-min Rain = 0
KEN1 120258Z 25008KT 32/09 A3011 RMK A01 T03240093  RH  024%=      5-min Rain = 0
KEN1 120259Z 25006KT 32/10 A3011 RMK A01 T03230095  RH  024%=      5-min Rain = 0
KEN1 120300Z 24007KT 32/10 A3011 RMK A01 T03230096  RH  025%=      5-min Rain = 0
KEN1 120301Z 23007KT 32/10 A3011 RMK A01 T03220097  RH  025%=      5-min Rain = 0
KEN1 120302Z 23005KT 32/10 A3011 RMK A01 T03220096  RH  025%=      5-min Rain = 0
KEN1 120303Z 21003KT 32/10 A3011 RMK A01 T03220096  RH  025%=      5-min Rain = 0
KEN1 120304Z 17003KT 32/10 A301 RMK A01 T03220096  RH  025%=      5-min Rain = 0
KEN1 120305Z 14004KT 32/10 A301 RMK A01 T03220096  RH  025%=      5-min Rain = 0
KEN1 120306Z 15005KT 32/10 A301 RMK A01 T03210095  RH  025%=      5-min Rain = 0
KEN1 120307Z 14004KT 32/09 A301 RMK A01 T03210092  RH  024%=      5-min Rain = 0
KEN1 120308Z 15003KT 32/09 A301 RMK A01 T03220094  RH  025%=      5-min Rain = 0
KEN1 120309Z 16003KT 32/09 A301 RMK A01 T03220094  RH  024%=      5-min Rain = 0
KEN1 120310Z 17003KT 32/10 A301 RMK A01 T03220095  RH  025%=      5-min Rain = 0
KEN1 120311Z 18005KT 32/10 A301 RMK A01 T03220095  RH  025%=      5-min Rain = 0
KEN1 120312Z 19006KT 32/10 A301 RMK A01 T03220097  RH  025%=      5-min Rain = 0
KEN1 120313Z 19007KT 32/10 A301 RMK A01 T03220098  RH  025%=      5-min Rain = 0
KEN1 120314Z 19007KT 32/10 A301 RMK A01 T03210096  RH  025%=      5-min Rain = 0
KEN1 120315Z 21007KT 32/10 A3011 RMK A01 T03210100  RH  026%=      5-min Rain = 0
KEN1 120316Z 23009KT 32/10 A3011 RMK A01 T03200098  RH  025%=      5-min Rain = 0
KEN1 120317Z 23009KT 32/10 A3011 RMK A01 T03200096  RH  025%=      5-min Rain = 0
KEN1 120318Z 23009KT 32/09 A3011 RMK A01 T03200094  RH  025%=      5-min Rain = 0
KEN1 120319Z 23009KT 32/09 A3011 RMK A01 T03210094  RH  025%=      5-min Rain = 0
KEN1 120320Z 23008KT 32/10 A3011 RMK A01 T03220097  RH  025%=      5-min Rain = 0
KEN1 120321Z 23006KT 32/10 A3011 RMK A01 T03220098  RH  025%=      5-min Rain = 0
KEN1 120322Z 22005KT 32/10 A3011 RMK A01 T03220098  RH  025%=      5-min Rain = 0
KEN1 120323Z 21003KT 32/10 A3011 RMK A01 T03210098  RH  025%=      5-min Rain = 0
KEN1 120324Z 16003KT 32/10 A3011 RMK A01 T03210099  RH  025%=      5-min Rain = 0
KEN1 120325Z 16005KT 32/10 A301 RMK A01 T03210101  RH  026%=      5-min Rain = 0
KEN1 120326Z 15005KT 32/10 A301 RMK A01 T03210102  RH  026%=      5-min Rain = 0
KEN1 120327Z 16007KT 32/10 A301 RMK A01 T03210101  RH  026%=      5-min Rain = 0
KEN1 120328Z 15006KT 32/10 A301 RMK A01 T03210100  RH  026%=      5-min Rain = 0
KEN1 120329Z 16006KT 32/10 A301 RMK A01 T03210102  RH  026%=      5-min Rain = 0
KEN1 120330Z 17006KT 32/10 A301 RMK A01 T03200103  RH  026%=      5-min Rain = 0
KEN1 120331Z 18006KT 32/10 A301 RMK A01 T03190104  RH  027%=      5-min Rain = 0
KEN1 120332Z 19007KT 32/10 A301 RMK A01 T03180104  RH  027%=      5-min Rain = 0
KEN1 120333Z 20007KT 32/10 A301 RMK A01 T03170102  RH  027%=      5-min Rain = 0
KEN1 120334Z 21007KT 32/10 A3011 RMK A01 T03170104  RH  027%=      5-min Rain = 0
KEN1 120335Z 21006KT 32/10 A3011 RMK A01 T03160103  RH  027%=      5-min Rain = 0
KEN1 120336Z 21006KT 32/10 A3011 RMK A01 T03160100  RH  026%=      5-min Rain = 0
KEN1 120337Z 20006KT 32/10 A3011 RMK A01 T03160102  RH  027%=      5-min Rain = 0
KEN1 120338Z 21006G19KT 32/10 A3011 RMK A01 T03160101  RH  026%=      5-min Rain = 0
KEN1 120339Z 25017KT 32/09 A3011 RMK A01 T03220086  RH  023%=      5-min Rain = 0
KEN1 120340Z 26023G31KT 34/08 A3011 RMK A01 T03390082  RH  021%=      5-min Rain = 0
KEN1 120341Z 25024G31KT 35/08 A3011 RMK A01 T03480082  RH  019%=      5-min Rain = 0
KEN1 120342Z 25019G25KT 35/08 A3011 RMK A01 T03530077  RH  018%=      5-min Rain = 0
KEN1 120343Z 26020KT 35/08 A3011 RMK A01 T03540080  RH  019%=      5-min Rain = 0
KEN1 120344Z 28014G20KT 35/08 A3012 RMK A01 T03540083  RH  019%=      5-min Rain = 0
KEN1 120345Z 28013KT 36/09 A3011 RMK A01 T03570086  RH  019%=      5-min Rain = 0
KEN1 120346Z 28009KT 36/09 A3011 RMK A01 T03560087  RH  019%=      5-min Rain = 0
KEN1 120347Z 25005KT 36/09 A3011 RMK A01 T03550088  RH  020%=      5-min Rain = 0
KEN1 120348Z 32004KT 35/08 A3011 RMK A01 T03540083  RH  019%=      5-min Rain = 0
KEN1 120349Z 29004KT 36/08 A3012 RMK A01 T03550081  RH  019%=      5-min Rain = 0
KEN1 120350Z 16002KT 36/08 A3011 RMK A01 T03560078  RH  018%=      5-min Rain = 0
KEN1 120351Z 13001KT 36/08 A3011 RMK A01 T03580077  RH  018%=      5-min Rain = 0
KEN1 120352Z 09003KT 36/08 A3011 RMK A01 T03590077  RH  018%=      5-min Rain = 0
KEN1 120353Z 06005KT 36/08 A3011 RMK A01 T03590077  RH  018%=      5-min Rain = 0
KEN1 120354Z 06009KT 36/08 A3011 RMK A01 T03580082  RH  019%=      5-min Rain = 0
KEN1 120355Z 05011KT 36/08 A3011 RMK A01 T03550079  RH  018%=      5-min Rain = 0
KEN1 120356Z 02005KT 35/07 A3011 RMK A01 T03540072  RH  018%=      5-min Rain = 0
KEN1 120357Z 02004KT 36/07 A301 RMK A01 T03560069  RH  017%=      5-min Rain = 0
KEN1 120358Z 04005KT 36/07 A301 RMK A01 T03580074  RH  018%=      5-min Rain = 0
KEN1 120359Z 05005KT 36/07 A301 RMK A01 T03570072  RH  017%=      5-min Rain = 0
KEN1 120400Z 07004KT 36/07 A3009 RMK A01 T03570071  RH  017%=      5-min Rain = 0
KEN1 120401Z 05003KT 36/07 A3009 RMK A01 T03570069  RH  017%=      5-min Rain = 0
KEN1 120402Z 05006KT 36/07 A3009 RMK A01 T03580072  RH  017%=      5-min Rain = 0
KEN1 120403Z 07009KT 35/08 A3008 RMK A01 T03540084  RH  019%=      5-min Rain = 0
KEN1 120404Z 07010KT 35/09 A3008 RMK A01 T03450086  RH  020%=      5-min Rain = 0
KEN1 120405Z 08013KT 34/09 A3007 RMK A01 T03380086  RH  021%=      5-min Rain = 0
KEN1 120406Z 07010KT 34/09 A3007 RMK A01 T03350086  RH  022%=      5-min Rain = 0
KEN1 120407Z 07016KT 34/08 A3006 RMK A01 T03370075  RH  020%=      5-min Rain = 0
KEN1 120408Z 08012KT 35/07 A3005 RMK A01 T03470072  RH  018%=      5-min Rain = 0
KEN1 120409Z 10010KT 35/07 A3005 RMK A01 T03500074  RH  018%=      5-min Rain = 0
KEN1 120410Z 09010KT 35/07 A3004 RMK A01 T03510072  RH  018%=      5-min Rain = 0
KEN1 120411Z 10009KT 35/07 A3004 RMK A01 T03520072  RH  018%=      5-min Rain = 0
KEN1 120412Z 10013KT 35/07 A3003 RMK A01 T03510074  RH  018%=      5-min Rain = 0
KEN1 120413Z 10014KT 35/07 A3003 RMK A01 T03510072  RH  018%=      5-min Rain = 0
KEN1 120414Z 11015KT 35/08 A3002 RMK A01 T03510075  RH  018%=      5-min Rain = 0
KEN1 120415Z 11013KT 35/07 A3002 RMK A01 T03510073  RH  018%=      5-min Rain = 0
KEN1 120416Z 12014KT 35/07 A3002 RMK A01 T03530073  RH  018%=      5-min Rain = 0
KEN1 120417Z 12012KT 35/08 A3003 RMK A01 T03530075  RH  018%=      5-min Rain = 0
KEN1 120418Z 11011KT 35/07 A3003 RMK A01 T03520074  RH  018%=      5-min Rain = 0
KEN1 120419Z 11011KT 35/08 A3003 RMK A01 T03510076  RH  018%=      5-min Rain = 0
KEN1 120420Z 11010KT 35/08 A3003 RMK A01 T03490075  RH  019%=      5-min Rain = 0
KEN1 120421Z 11010KT 35/08 A3003 RMK A01 T03480075  RH  019%=      5-min Rain = 0
KEN1 120422Z 11010KT 35/08 A3003 RMK A01 T03480075  RH  019%=      5-min Rain = 0
KEN1 120423Z 10008KT 35/08 A3003 RMK A01 T03470076  RH  019%=      5-min Rain = 0
KEN1 120424Z 10007KT 35/08 A3003 RMK A01 T03460075  RH  019%=      5-min Rain = 0
KEN1 120425Z 10006KT 35/07 A3003 RMK A01 T03450074  RH  019%=      5-min Rain = 0
KEN1 120426Z 09006KT 35/07 A3003 RMK A01 T03450072  RH  018%=      5-min Rain = 0
KEN1 120427Z 09005KT 35/07 A3003 RMK A01 T03470070  RH  018%=      5-min Rain = 0
KEN1 120428Z 09005KT 35/07 A3003 RMK A01 T03480072  RH  018%=      5-min Rain = 0
KEN1 120429Z 10005KT 35/08 A3003 RMK A01 T03470075  RH  019%=      5-min Rain = 0
KEN1 120430Z 11007KT 34/08 A3003 RMK A01 T03430076  RH  019%=      5-min Rain = 0
KEN1 120431Z 11006KT 34/08 A3003 RMK A01 T03400077  RH  020%=      5-min Rain = 0
KEN1 120432Z 12011G19KT 34/08 A3003 RMK A01 T03370079  RH  020%=      5-min Rain = 0
KEN1 120433Z 12020KT 33/09 A3003 RMK A01 T03320088  RH  022%=      5-min Rain = 0
KEN1 120434Z 13017KT 32/09 A3003 RMK A01 T03240090  RH  024%=      5-min Rain = 0
KEN1 120435Z 12014KT 32/09 A3003 RMK A01 T03190092  RH  025%=      5-min Rain = 0
KEN1 120436Z 12015KT 32/09 A3003 RMK A01 T03160091  RH  025%=      5-min Rain = 0
KEN1 120437Z 12017KT 32/09 A3004 RMK A01 T03160091  RH  025%=      5-min Rain = 0
KEN1 120438Z 12018KT 32/09 A3004 RMK A01 T03150092  RH  025%=      5-min Rain = 0
KEN1 120439Z 12014KT 31/09 A3004 RMK A01 T03140093  RH  025%=      5-min Rain = 0
KEN1 120440Z 12018KT 31/09 A3004 RMK A01 T03120094  RH  026%=      5-min Rain = 0
KEN1 120441Z 12016KT 31/10 A3004 RMK A01 T03110095  RH  026%=      5-min Rain = 0
KEN1 120442Z 12017KT 31/10 A3004 RMK A01 T03090095  RH  026%=      5-min Rain = 0
KEN1 120443Z 12017KT 31/10 A3004 RMK A01 T03090096  RH  027%=      5-min Rain = 0
KEN1 120444Z 12019KT 31/10 A3004 RMK A01 T03070098  RH  027%=      5-min Rain = 0
KEN1 120445Z 12018KT 31/10 A3005 RMK A01 T03070100  RH  028%=      5-min Rain = 0
KEN1 120446Z 12017KT 31/10 A3005 RMK A01 T03070101  RH  028%=      5-min Rain = 0
KEN1 120447Z 12016KT 31/10 A3005 RMK A01 T03070102  RH  028%=      5-min Rain = 0
KEN1 120448Z 12016KT 31/10 A3005 RMK A01 T03070102  RH  028%=      5-min Rain = 0
KEN1 120449Z 12016KT 31/10 A3005 RMK A01 T03070101  RH  028%=      5-min Rain = 0
KEN1 120450Z 13016KT 31/10 A3005 RMK A01 T03090100  RH  028%=      5-min Rain = 0
KEN1 120451Z 13015KT 31/10 A3005 RMK A01 T03100100  RH  027%=      5-min Rain = 0
KEN1 120452Z 13013KT 31/10 A3005 RMK A01 T03120100  RH  027%=      5-min Rain = 0
KEN1 120453Z 13017KT 31/10 A3005 RMK A01 T03120100  RH  027%=      5-min Rain = 0
KEN1 120454Z 13016KT 31/10 A3005 RMK A01 T03130099  RH  027%=      5-min Rain = 0
KEN1 120455Z 12014KT 32/10 A3005 RMK A01 T03150100  RH  027%=      5-min Rain = 0
KEN1 120456Z 12014KT 32/10 A3005 RMK A01 T03150099  RH  026%=      5-min Rain = 0
KEN1 120457Z 12013KT 32/10 A3005 RMK A01 T03150099  RH  026%=      5-min Rain = 0
KEN1 120458Z 12012KT 32/10 A3005 RMK A01 T03160099  RH  026%=      5-min Rain = 0
KEN1 120459Z 12011KT 32/10 A3005 RMK A01 T03160099  RH  026%=      5-min Rain = 0

Page generated in 0.1261 seconds.